Time,TemperatureF,DewpointF,PressureIn,WindDirection,WindDirectionDegrees,WindSpeedMPH,WindSpeedGustMPH,Humidity,HourlyPrecipIn,Conditions,Clouds,dailyrainin,SoftwareType,DateUTC
2013-05-31 00:01:00,79.7,74.4,30.03,SE,135,3.3,3.3,84,0.00,,---,0.00,VWS V13.01,2013-05-31 04:01:00,
2013-05-31 00:06:00,79.7,74.4,30.03,SE,135,2.0,4.4,84,0.00,,---,0.00,VWS V13.01,2013-05-31 04:06:00,
2013-05-31 00:11:00,79.5,74.2,30.03,ENE,68,2.4,2.4,84,0.00,,---,0.00,VWS V13.01,2013-05-31 04:11:00,
2013-05-31 00:16:00,79.5,74.2,30.02,East,90,4.2,4.2,84,0.00,,---,0.00,VWS V13.01,2013-05-31 04:16:00,
2013-05-31 00:21:00,79.5,74.2,30.02,ESE,112,2.2,2.2,84,0.00,,---,0.00,VWS V13.01,2013-05-31 04:21:00,
2013-05-31 00:26:00,79.5,74.2,30.02,SE,135,5.1,5.1,84,0.00,,---,0.00,VWS V13.01,2013-05-31 04:26:00,
2013-05-31 00:31:00,79.3,74.1,30.01,SSE,158,4.6,4.6,84,0.00,,---,0.00,VWS V13.01,2013-05-31 04:31:00,
2013-05-31 00:36:00,79.3,74.1,30.01,SE,135,2.4,2.4,84,0.00,,---,0.00,VWS V13.01,2013-05-31 04:36:00,
2013-05-31 00:41:00,79.3,74.1,30.01,ESE,112,1.1,2.9,84,0.00,,---,0.00,VWS V13.01,2013-05-31 04:41:00,
2013-05-31 00:42:00,79.3,74.1,30.01,ESE,112,1.1,1.1,84,0.00,,---,0.00,VWS V13.01,2013-05-31 04:42:00,
2013-05-31 00:46:00,79.3,74.1,30.01,SSE,158,3.8,3.8,84,0.00,,---,0.00,VWS V13.01,2013-05-31 04:46:00,
2013-05-31 00:47:00,79.3,74.1,30.01,SSE,158,3.8,3.8,84,0.00,,---,0.00,VWS V13.01,2013-05-31 04:47:00,
2013-05-31 00:51:00,79.3,74.1,30.01,ESE,112,2.4,2.4,84,0.00,,---,0.00,VWS V13.01,2013-05-31 04:51:00,
2013-05-31 00:52:00,79.3,74.1,30.01,ESE,112,2.4,2.4,84,0.00,,---,0.00,VWS V13.01,2013-05-31 04:52:00,
2013-05-31 00:56:00,79.3,74.1,30.01,SSE,158,2.0,2.0,84,0.00,,---,0.00,VWS V13.01,2013-05-31 04:56:00,
2013-05-31 00:57:00,79.3,74.1,30.01,SSE,158,2.0,2.0,84,0.00,,---,0.00,VWS V13.01,2013-05-31 04:57:00,
2013-05-31 01:01:00,79.3,74.1,30.01,South,180,3.8,3.8,84,0.00,,---,0.00,VWS V13.01,2013-05-31 05:01:00,
2013-05-31 01:02:00,79.3,74.1,30.01,SSE,158,0.0,3.8,84,0.00,,---,0.00,VWS V13.01,2013-05-31 05:02:00,
2013-05-31 01:06:00,79.1,73.8,30.01,SSE,158,1.1,1.1,84,0.00,,---,0.00,VWS V13.01,2013-05-31 05:06:00,
2013-05-31 01:07:00,79.1,73.8,30.01,ESE,112,0.0,1.1,84,0.00,,---,0.00,VWS V13.01,2013-05-31 05:07:00,
2013-05-31 01:11:00,79.1,73.8,30.00,ESE,112,2.4,2.4,84,0.00,,---,0.00,VWS V13.01,2013-05-31 05:11:00,
2013-05-31 01:12:00,79.1,73.8,30.00,SE,135,4.2,4.2,84,0.00,,---,0.00,VWS V13.01,2013-05-31 05:12:00,
2013-05-31 01:16:00,79.1,73.8,30.00,SE,135,1.5,1.5,84,0.00,,---,0.00,VWS V13.01,2013-05-31 05:16:00,
2013-05-31 01:17:00,79.1,73.5,30.01,East,90,1.1,1.1,83,0.00,,---,0.00,VWS V13.01,2013-05-31 05:17:00,
2013-05-31 01:21:00,78.9,73.3,30.00,SSE,158,0.0,0.0,83,0.00,,---,0.00,VWS V13.01,2013-05-31 05:21:00,
2013-05-31 01:22:00,78.9,73.3,30.00,SE,135,1.3,1.3,83,0.00,,---,0.00,VWS V13.01,2013-05-31 05:22:00,
2013-05-31 01:26:00,78.9,73.3,30.00,SE,135,0.0,0.0,83,0.00,,---,0.00,VWS V13.01,2013-05-31 05:26:00,
2013-05-31 01:27:00,78.9,73.3,30.00,SE,135,0.0,0.0,83,0.00,,---,0.00,VWS V13.01,2013-05-31 05:27:00,
2013-05-31 01:32:00,78.9,73.3,30.00,ESE,112,3.8,3.8,83,0.00,,---,0.00,VWS V13.01,2013-05-31 05:32:00,
2013-05-31 01:37:00,78.9,73.3,30.00,SE,135,0.0,0.0,83,0.00,,---,0.00,VWS V13.01,2013-05-31 05:37:00,
2013-05-31 01:42:00,78.9,73.3,30.00,South,180,3.1,3.1,83,0.00,,---,0.00,VWS V13.01,2013-05-31 05:42:00,
2013-05-31 01:43:00,78.9,73.3,30.00,South,180,3.1,3.1,83,0.00,,---,0.00,VWS V13.01,2013-05-31 05:43:00,
2013-05-31 01:47:00,78.9,73.3,30.00,SSE,158,0.0,0.0,83,0.00,,---,0.00,VWS V13.01,2013-05-31 05:47:00,
2013-05-31 01:48:00,78.9,73.3,30.00,SSE,158,0.0,0.0,83,0.00,,---,0.00,VWS V13.01,2013-05-31 05:48:00,
2013-05-31 01:52:00,78.9,73.3,30.00,SE,135,0.0,0.0,83,0.00,,---,0.00,VWS V13.01,2013-05-31 05:52:00,
2013-05-31 01:53:00,78.9,73.3,29.99,SE,135,0.0,0.0,83,0.00,,---,0.00,VWS V13.01,2013-05-31 05:53:00,
2013-05-31 01:57:00,78.9,73.7,29.99,SE,135,2.4,2.4,84,0.00,,---,0.00,VWS V13.01,2013-05-31 05:57:00,
2013-05-31 01:58:00,78.9,73.7,29.99,ESE,112,3.1,3.1,84,0.00,,---,0.00,VWS V13.01,2013-05-31 05:58:00,
2013-05-31 02:02:00,78.9,73.7,29.99,SSE,158,1.1,1.1,84,0.00,,---,0.00,VWS V13.01,2013-05-31 06:02:00,
2013-05-31 02:03:00,78.9,73.7,29.99,SE,135,1.3,1.3,84,0.00,,---,0.00,VWS V13.01,2013-05-31 06:03:00,
2013-05-31 02:07:00,78.9,73.7,30.00,SSE,158,0.0,0.0,84,0.00,,---,0.00,VWS V13.01,2013-05-31 06:07:00,
2013-05-31 02:08:00,78.9,73.7,29.99,SE,135,1.3,1.3,84,0.00,,---,0.00,VWS V13.01,2013-05-31 06:08:00,
2013-05-31 02:12:00,78.9,73.7,30.00,ENE,68,0.0,0.0,84,0.00,,---,0.00,VWS V13.01,2013-05-31 06:12:00,
2013-05-31 02:13:00,78.9,73.7,30.00,SE,135,0.6,0.6,84,0.00,,---,0.00,VWS V13.01,2013-05-31 06:13:00,
2013-05-31 02:17:00,78.9,73.7,29.99,ENE,68,0.0,0.0,84,0.00,,---,0.00,VWS V13.01,2013-05-31 06:17:00,
2013-05-31 02:18:00,78.9,73.7,29.99,ESE,112,0.0,0.0,84,0.00,,---,0.00,VWS V13.01,2013-05-31 06:18:00,
2013-05-31 02:22:00,78.9,73.7,29.99,SE,135,4.6,4.6,84,0.00,,---,0.00,VWS V13.01,2013-05-31 06:22:00,
2013-05-31 02:23:00,78.9,73.7,29.99,SE,135,1.5,1.5,84,0.00,,---,0.00,VWS V13.01,2013-05-31 06:23:00,
2013-05-31 02:27:00,78.9,73.7,29.99,ENE,68,0.0,0.0,84,0.00,,---,0.00,VWS V13.01,2013-05-31 06:27:00,
2013-05-31 02:28:00,78.9,73.7,29.99,ENE,68,0.0,0.0,84,0.00,,---,0.00,VWS V13.01,2013-05-31 06:28:00,
2013-05-31 02:33:00,78.9,73.7,29.99,SE,135,1.5,1.5,84,0.00,,---,0.00,VWS V13.01,2013-05-31 06:33:00,
2013-05-31 02:34:00,78.9,73.7,29.99,East,90,0.0,1.5,84,0.00,,---,0.00,VWS V13.01,2013-05-31 06:34:00,
2013-05-31 02:38:00,78.9,73.7,29.99,ESE,112,6.0,8.2,84,0.00,,---,0.00,VWS V13.01,2013-05-31 06:38:00,
2013-05-31 02:39:00,78.9,73.7,29.99,ESE,112,6.0,6.0,84,0.00,,---,0.00,VWS V13.01,2013-05-31 06:39:00,
2013-05-31 02:43:00,78.9,73.7,29.99,SE,135,3.3,3.3,84,0.00,,---,0.00,VWS V13.01,2013-05-31 06:43:00,
2013-05-31 02:44:00,78.9,73.7,29.99,ENE,68,0.8,0.8,84,0.00,,---,0.00,VWS V13.01,2013-05-31 06:44:00,
2013-05-31 02:48:00,79.1,73.8,29.99,ESE,112,1.7,1.7,84,0.00,,---,0.00,VWS V13.01,2013-05-31 06:48:00,
2013-05-31 02:49:00,79.1,73.8,29.99,NE,45,0.0,0.0,84,0.00,,---,0.00,VWS V13.01,2013-05-31 06:49:00,
2013-05-31 02:53:00,79.1,73.8,29.99,East,90,2.4,2.4,84,0.00,,---,0.00,VWS V13.01,2013-05-31 06:53:00,
2013-05-31 02:54:00,79.1,73.8,29.99,SSE,158,1.5,2.4,84,0.00,,---,0.00,VWS V13.01,2013-05-31 06:54:00,
2013-05-31 02:58:00,79.3,74.1,29.98,ESE,112,0.0,0.0,84,0.00,,---,0.00,VWS V13.01,2013-05-31 06:58:00,
2013-05-31 02:59:00,79.3,74.1,29.98,ESE,112,0.0,0.0,84,0.00,,---,0.00,VWS V13.01,2013-05-31 06:59:00,
2013-05-31 03:03:00,79.3,74.1,29.98,SSE,158,1.5,1.5,84,0.00,,---,0.00,VWS V13.01,2013-05-31 07:03:00,
2013-05-31 03:04:00,79.3,74.1,29.98,SSE,158,0.0,0.0,84,0.00,,---,0.00,VWS V13.01,2013-05-31 07:04:00,
2013-05-31 03:08:00,79.3,74.1,29.99,ESE,112,3.1,3.1,84,0.00,,---,0.00,VWS V13.01,2013-05-31 07:08:00,
2013-05-31 03:09:00,79.3,74.1,29.99,ESE,112,0.0,0.0,84,0.00,,---,0.00,VWS V13.01,2013-05-31 07:09:00,
2013-05-31 03:13:00,79.3,74.1,29.99,ENE,68,6.9,6.9,84,0.00,,---,0.00,VWS V13.01,2013-05-31 07:13:00,
2013-05-31 03:14:00,79.3,74.1,29.98,SE,135,1.3,1.3,84,0.00,,---,0.00,VWS V13.01,2013-05-31 07:14:00,
2013-05-31 03:18:00,79.1,73.8,29.98,ESE,112,2.0,2.0,84,0.00,,---,0.00,VWS V13.01,2013-05-31 07:18:00,
2013-05-31 03:19:00,78.9,73.7,29.98,East,90,3.3,3.3,84,0.00,,---,0.00,VWS V13.01,2013-05-31 07:19:00,
2013-05-31 03:20:00,78.9,73.3,29.98,SE,135,8.2,8.2,83,0.00,,---,0.00,VWS V13.01,2013-05-31 07:20:00,
2013-05-31 03:23:00,78.9,73.3,29.98,ESE,112,0.0,0.0,83,0.00,,---,0.00,VWS V13.01,2013-05-31 07:23:00,
2013-05-31 03:24:00,78.8,73.2,29.98,ESE,112,2.4,2.4,83,0.00,,---,0.00,VWS V13.01,2013-05-31 07:24:00,
2013-05-31 03:25:00,78.9,73.3,29.98,ENE,68,2.4,2.4,83,0.00,,---,0.00,VWS V13.01,2013-05-31 07:25:00,
2013-05-31 03:28:00,78.6,73.0,29.99,ENE,68,5.5,5.5,83,0.00,,---,0.00,VWS V13.01,2013-05-31 07:28:00,
2013-05-31 03:29:00,78.6,73.0,29.98,SE,135,4.4,4.4,83,0.00,,---,0.00,VWS V13.01,2013-05-31 07:29:00,
2013-05-31 03:30:00,78.6,73.0,29.99,SSE,158,2.2,2.2,83,0.00,,---,0.00,VWS V13.01,2013-05-31 07:30:00,
2013-05-31 03:33:00,78.6,73.0,29.98,SE,135,1.7,1.7,83,0.00,,---,0.00,VWS V13.01,2013-05-31 07:33:00,
2013-05-31 03:34:00,78.6,73.0,29.98,SE,135,7.6,7.6,83,0.00,,---,0.00,VWS V13.01,2013-05-31 07:34:00,
2013-05-31 03:35:00,78.6,73.0,29.98,South,180,8.9,8.9,83,0.00,,---,0.00,VWS V13.01,2013-05-31 07:35:00,
2013-05-31 03:38:00,78.6,73.0,29.98,SE,135,0.0,0.0,83,0.00,,---,0.00,VWS V13.01,2013-05-31 07:38:00,
2013-05-31 03:39:00,78.6,73.0,29.98,SSW,202,2.9,2.9,83,0.00,,---,0.00,VWS V13.01,2013-05-31 07:39:00,
2013-05-31 03:40:00,78.6,73.0,29.98,South,180,4.0,4.0,83,0.00,,---,0.00,VWS V13.01,2013-05-31 07:40:00,
2013-05-31 03:43:00,78.6,73.0,29.98,SE,135,2.2,2.2,83,0.00,,---,0.00,VWS V13.01,2013-05-31 07:43:00,
2013-05-31 03:44:00,78.6,73.0,29.99,ESE,112,2.2,2.2,83,0.00,,---,0.00,VWS V13.01,2013-05-31 07:44:00,
2013-05-31 03:45:00,78.6,72.7,29.99,ESE,112,1.5,1.5,82,0.00,,---,0.00,VWS V13.01,2013-05-31 07:45:00,
2013-05-31 03:48:00,78.6,72.7,29.99,SE,135,0.0,0.0,82,0.00,,---,0.00,VWS V13.01,2013-05-31 07:48:00,
2013-05-31 03:49:00,78.6,72.7,29.99,SE,135,2.0,2.0,82,0.00,,---,0.00,VWS V13.01,2013-05-31 07:49:00,
2013-05-31 03:50:00,78.6,72.7,29.99,ESE,112,5.3,5.3,82,0.00,,---,0.00,VWS V13.01,2013-05-31 07:50:00,
2013-05-31 03:53:00,78.6,73.0,29.98,South,180,1.5,1.5,83,0.00,,---,0.00,VWS V13.01,2013-05-31 07:53:00,
2013-05-31 03:54:00,78.6,73.0,29.98,SE,135,4.0,4.0,83,0.00,,---,0.00,VWS V13.01,2013-05-31 07:54:00,
2013-05-31 03:55:00,78.6,73.0,29.99,SSE,158,2.0,2.0,83,0.00,,---,0.00,VWS V13.01,2013-05-31 07:55:00,
2013-05-31 03:58:00,78.6,73.0,29.99,South,180,3.1,3.1,83,0.00,,---,0.00,VWS V13.01,2013-05-31 07:58:00,
2013-05-31 03:59:00,78.6,73.0,29.99,South,180,3.1,3.1,83,0.00,,---,0.00,VWS V13.01,2013-05-31 07:59:00,
2013-05-31 04:00:00,78.6,73.0,29.99,South,180,3.1,3.1,83,0.00,,---,0.00,VWS V13.01,2013-05-31 08:00:00,
2013-05-31 04:03:00,78.6,73.0,29.99,SE,135,2.4,2.4,83,0.00,,---,0.00,VWS V13.01,2013-05-31 08:03:00,
2013-05-31 04:04:00,78.6,73.0,29.99,South,180,2.2,2.2,83,0.00,,---,0.00,VWS V13.01,2013-05-31 08:04:00,
2013-05-31 04:05:00,78.6,73.0,29.99,South,180,2.2,2.2,83,0.00,,---,0.00,VWS V13.01,2013-05-31 08:05:00,
2013-05-31 04:09:00,78.6,73.0,29.99,NE,45,2.0,2.0,83,0.02,,---,0.02,VWS V13.01,2013-05-31 08:09:00,
2013-05-31 04:10:00,78.6,73.0,29.99,East,90,0.0,0.0,83,0.02,,---,0.02,VWS V13.01,2013-05-31 08:10:00,
2013-05-31 04:14:00,78.4,73.2,29.99,South,180,0.8,0.8,84,0.02,,---,0.02,VWS V13.01,2013-05-31 08:14:00,
2013-05-31 04:15:00,78.4,72.8,29.99,SSE,158,3.5,3.5,83,0.04,,---,0.04,VWS V13.01,2013-05-31 08:15:00,
2013-05-31 04:19:00,78.0,72.4,29.99,ESE,112,0.0,0.0,83,0.04,,---,0.04,VWS V13.01,2013-05-31 08:19:00,
2013-05-31 04:20:00,78.0,72.4,29.99,SSW,202,2.2,2.2,83,0.04,,---,0.04,VWS V13.01,2013-05-31 08:20:00,
2013-05-31 04:21:00,78.0,72.4,29.99,South,180,0.0,2.2,83,0.04,,---,0.04,VWS V13.01,2013-05-31 08:21:00,
2013-05-31 04:24:00,78.0,72.4,29.99,SE,135,2.2,2.2,83,0.04,,---,0.04,VWS V13.01,2013-05-31 08:24:00,
2013-05-31 04:25:00,78.0,72.4,29.99,SSE,158,0.0,0.0,83,0.04,,---,0.04,VWS V13.01,2013-05-31 08:25:00,
2013-05-31 04:26:00,78.0,72.4,29.99,SSE,158,0.0,0.0,83,0.04,,---,0.04,VWS V13.01,2013-05-31 08:26:00,
2013-05-31 04:29:00,78.0,72.4,30.00,SE,135,0.0,0.0,83,0.04,,---,0.04,VWS V13.01,2013-05-31 08:29:00,
2013-05-31 04:30:00,78.0,72.4,30.00,SE,135,0.0,0.0,83,0.04,,---,0.04,VWS V13.01,2013-05-31 08:30:00,
2013-05-31 04:31:00,78.0,72.4,30.00,ESE,112,0.0,0.0,83,0.04,,---,0.04,VWS V13.01,2013-05-31 08:31:00,
2013-05-31 04:34:00,78.0,72.8,30.00,ESE,112,2.0,2.0,84,0.04,,---,0.04,VWS V13.01,2013-05-31 08:34:00,
2013-05-31 04:35:00,78.0,72.8,30.00,SSE,158,0.0,0.0,84,0.04,,---,0.04,VWS V13.01,2013-05-31 08:35:00,
2013-05-31 04:36:00,78.0,72.8,30.00,SE,135,3.3,3.3,84,0.04,,---,0.04,VWS V13.01,2013-05-31 08:36:00,
2013-05-31 04:39:00,77.9,72.7,30.00,SE,135,2.9,2.9,84,0.04,,---,0.04,VWS V13.01,2013-05-31 08:39:00,
2013-05-31 04:40:00,78.0,72.8,30.00,SSE,158,0.0,0.0,84,0.04,,---,0.04,VWS V13.01,2013-05-31 08:40:00,
2013-05-31 04:41:00,77.9,72.7,30.00,SSE,158,0.0,0.0,84,0.04,,---,0.04,VWS V13.01,2013-05-31 08:41:00,
2013-05-31 04:44:00,77.9,72.7,30.00,SE,135,0.0,0.0,84,0.04,,---,0.04,VWS V13.01,2013-05-31 08:44:00,
2013-05-31 04:45:00,78.0,72.8,30.00,NE,45,0.0,0.0,84,0.04,,---,0.04,VWS V13.01,2013-05-31 08:45:00,
2013-05-31 04:46:00,78.0,72.8,30.00,NE,45,0.0,0.0,84,0.04,,---,0.04,VWS V13.01,2013-05-31 08:46:00,
2013-05-31 04:49:00,78.0,72.8,30.00,ENE,68,2.4,2.4,84,0.04,,---,0.04,VWS V13.01,2013-05-31 08:49:00,
2013-05-31 04:50:00,78.0,73.1,30.00,SE,135,1.1,1.1,85,0.04,,---,0.04,VWS V13.01,2013-05-31 08:50:00,
2013-05-31 04:51:00,78.0,73.1,30.00,SE,135,1.1,1.1,85,0.04,,---,0.04,VWS V13.01,2013-05-31 08:51:00,
2013-05-31 04:54:00,77.9,73.0,30.01,East,90,6.9,6.9,85,0.04,,---,0.04,VWS V13.01,2013-05-31 08:54:00,
2013-05-31 04:55:00,77.9,73.0,30.01,East,90,6.9,6.9,85,0.04,,---,0.04,VWS V13.01,2013-05-31 08:55:00,
2013-05-31 04:56:00,77.9,73.0,30.00,SSE,158,6.9,6.9,85,0.04,,---,0.04,VWS V13.01,2013-05-31 08:56:00,
2013-05-31 05:00:00,77.7,72.8,30.00,NNE,22,3.8,3.8,85,0.04,,---,0.04,VWS V13.01,2013-05-31 09:00:00,
2013-05-31 05:01:00,77.7,72.8,30.00,NE,45,2.6,3.8,85,0.04,,---,0.04,VWS V13.01,2013-05-31 09:01:00,
2013-05-31 05:05:00,77.5,72.6,30.01,ENE,68,5.3,5.3,85,0.04,,---,0.04,VWS V13.01,2013-05-31 09:05:00,
2013-05-31 05:06:00,77.5,72.6,30.00,SE,135,9.6,9.6,85,0.04,,---,0.04,VWS V13.01,2013-05-31 09:06:00,
2013-05-31 05:10:00,77.5,72.6,30.01,SE,135,0.8,0.8,85,0.00,,---,0.04,VWS V13.01,2013-05-31 09:10:00,
2013-05-31 05:11:00,77.5,72.6,30.01,ENE,68,6.0,6.0,85,0.00,,---,0.04,VWS V13.01,2013-05-31 09:11:00,
2013-05-31 05:15:00,77.5,73.0,30.01,East,90,0.0,0.0,86,0.00,,---,0.04,VWS V13.01,2013-05-31 09:15:00,
2013-05-31 05:16:00,77.5,73.0,30.01,East,90,1.3,1.3,86,0.00,,---,0.04,VWS V13.01,2013-05-31 09:16:00,
2013-05-31 05:17:00,77.5,73.0,30.01,East,90,1.3,1.3,86,0.00,,---,0.04,VWS V13.01,2013-05-31 09:17:00,
2013-05-31 05:20:00,77.5,73.0,30.00,East,90,1.7,1.7,86,0.00,,---,0.04,VWS V13.01,2013-05-31 09:20:00,
2013-05-31 05:21:00,77.5,73.0,30.00,East,90,1.7,1.7,86,0.00,,---,0.04,VWS V13.01,2013-05-31 09:21:00,
2013-05-31 05:22:00,77.5,73.3,30.01,East,90,4.0,4.0,87,0.00,,---,0.04,VWS V13.01,2013-05-31 09:22:00,
2013-05-31 05:25:00,77.5,73.3,30.01,East,90,6.2,6.2,87,0.00,,---,0.04,VWS V13.01,2013-05-31 09:25:00,
2013-05-31 05:26:00,77.5,73.3,30.01,ESE,112,3.8,3.8,87,0.00,,---,0.04,VWS V13.01,2013-05-31 09:26:00,
2013-05-31 05:27:00,77.5,73.3,30.01,SE,135,9.8,9.8,87,0.00,,---,0.04,VWS V13.01,2013-05-31 09:27:00,
2013-05-31 05:30:00,77.5,73.3,30.00,SE,135,10.5,10.5,87,0.00,,---,0.04,VWS V13.01,2013-05-31 09:30:00,
2013-05-31 05:31:00,77.5,73.3,30.01,SE,135,0.0,0.0,87,0.00,,---,0.04,VWS V13.01,2013-05-31 09:31:00,
2013-05-31 05:32:00,77.5,73.3,30.00,SE,135,11.6,11.6,87,0.00,,---,0.04,VWS V13.01,2013-05-31 09:32:00,
2013-05-31 05:35:00,77.5,73.3,30.00,ENE,68,2.0,2.0,87,0.00,,---,0.04,VWS V13.01,2013-05-31 09:35:00,
2013-05-31 05:36:00,77.5,73.3,30.00,ENE,68,3.1,3.1,87,0.00,,---,0.04,VWS V13.01,2013-05-31 09:36:00,
2013-05-31 05:37:00,77.5,73.3,30.00,ESE,112,0.0,0.0,87,0.00,,---,0.04,VWS V13.01,2013-05-31 09:37:00,
2013-05-31 05:40:00,77.5,73.3,30.01,East,90,5.3,5.3,87,0.00,,---,0.04,VWS V13.01,2013-05-31 09:40:00,
2013-05-31 05:41:00,77.5,73.3,30.00,SE,135,1.7,1.7,87,0.00,,---,0.04,VWS V13.01,2013-05-31 09:41:00,
2013-05-31 05:42:00,77.5,73.3,30.01,SE,135,6.2,6.2,87,0.00,,---,0.04,VWS V13.01,2013-05-31 09:42:00,
2013-05-31 05:45:00,77.5,73.3,30.01,SE,135,5.3,5.3,87,0.00,,---,0.04,VWS V13.01,2013-05-31 09:45:00,
2013-05-31 05:46:00,77.5,73.3,30.01,SE,135,1.1,1.1,87,0.00,,---,0.04,VWS V13.01,2013-05-31 09:46:00,
2013-05-31 05:47:00,77.5,73.3,30.01,East,90,3.1,3.1,87,0.00,,---,0.04,VWS V13.01,2013-05-31 09:47:00,
2013-05-31 05:50:00,77.5,73.3,30.01,ESE,112,0.0,0.0,87,0.00,,---,0.04,VWS V13.01,2013-05-31 09:50:00,
2013-05-31 05:51:00,77.5,73.3,30.01,SSE,158,0.0,0.0,87,0.00,,---,0.04,VWS V13.01,2013-05-31 09:51:00,
2013-05-31 05:52:00,77.5,73.3,30.01,ENE,68,2.9,2.9,87,0.00,,---,0.04,VWS V13.01,2013-05-31 09:52:00,
2013-05-31 05:55:00,77.5,73.3,30.02,SSE,158,2.2,2.2,87,0.00,,---,0.04,VWS V13.01,2013-05-31 09:55:00,
2013-05-31 05:56:00,77.5,73.3,30.02,SE,135,2.2,2.2,87,0.00,,---,0.04,VWS V13.01,2013-05-31 09:56:00,
2013-05-31 05:57:00,77.7,73.5,30.02,ENE,68,2.6,2.6,87,0.00,,---,0.04,VWS V13.01,2013-05-31 09:57:00,
2013-05-31 06:01:00,77.7,73.5,30.02,SSE,158,1.1,1.1,87,0.00,,---,0.04,VWS V13.01,2013-05-31 10:01:00,
2013-05-31 06:02:00,77.7,73.5,30.02,SE,135,0.0,4.0,87,0.00,,---,0.04,VWS V13.01,2013-05-31 10:02:00,
2013-05-31 06:06:00,77.7,73.5,30.02,South,180,0.0,0.0,87,0.00,,---,0.04,VWS V13.01,2013-05-31 10:06:00,
2013-05-31 06:07:00,77.7,73.5,30.02,ESE,112,4.4,4.4,87,0.00,,---,0.04,VWS V13.01,2013-05-31 10:07:00,
2013-05-31 06:11:00,77.9,73.7,30.02,ESE,112,3.1,3.1,87,0.00,,---,0.04,VWS V13.01,2013-05-31 10:11:00,
2013-05-31 06:12:00,77.9,73.7,30.02,ENE,68,3.3,3.3,87,0.00,,---,0.04,VWS V13.01,2013-05-31 10:12:00,
2013-05-31 06:16:00,78.0,73.8,30.02,ENE,68,6.2,6.2,87,0.00,,---,0.04,VWS V13.01,2013-05-31 10:16:00,
2013-05-31 06:17:00,77.9,73.7,30.02,ESE,112,3.5,3.5,87,0.00,,---,0.04,VWS V13.01,2013-05-31 10:17:00,
2013-05-31 06:21:00,78.0,73.8,30.02,ESE,112,2.0,2.0,87,0.00,,---,0.04,VWS V13.01,2013-05-31 10:21:00,
2013-05-31 06:22:00,78.0,73.8,30.02,ESE,112,1.1,1.1,87,0.00,,---,0.04,VWS V13.01,2013-05-31 10:22:00,
2013-05-31 06:26:00,78.0,73.8,30.03,East,90,1.5,1.5,87,0.00,,---,0.04,VWS V13.01,2013-05-31 10:26:00,
2013-05-31 06:27:00,78.0,73.8,30.02,SE,135,1.3,1.3,87,0.00,,---,0.04,VWS V13.01,2013-05-31 10:27:00,
2013-05-31 06:31:00,78.0,73.8,30.02,ESE,112,0.0,0.0,87,0.00,,---,0.04,VWS V13.01,2013-05-31 10:31:00,
2013-05-31 06:32:00,78.0,73.8,30.02,ENE,68,0.0,0.0,87,0.00,,---,0.04,VWS V13.01,2013-05-31 10:32:00,
2013-05-31 06:36:00,78.0,73.8,30.02,East,90,2.2,2.2,87,0.00,,---,0.04,VWS V13.01,2013-05-31 10:36:00,
2013-05-31 06:37:00,78.2,74.0,30.02,East,90,1.5,1.5,87,0.00,,---,0.04,VWS V13.01,2013-05-31 10:37:00,
2013-05-31 06:41:00,78.4,74.2,30.02,SSE,158,4.4,4.4,87,0.00,,---,0.04,VWS V13.01,2013-05-31 10:41:00,
2013-05-31 06:42:00,78.4,74.2,30.02,SSE,158,4.4,4.4,87,0.00,,---,0.04,VWS V13.01,2013-05-31 10:42:00,
2013-05-31 06:43:00,78.2,74.0,30.03,SE,135,0.8,0.8,87,0.00,,---,0.04,VWS V13.01,2013-05-31 10:43:00,
2013-05-31 06:46:00,78.4,74.2,30.02,ENE,68,2.2,2.2,87,0.00,,---,0.04,VWS V13.01,2013-05-31 10:46:00,
2013-05-31 06:47:00,78.4,74.2,30.02,ENE,68,2.2,2.2,87,0.00,,---,0.04,VWS V13.01,2013-05-31 10:47:00,
2013-05-31 06:51:00,78.4,74.2,30.03,NE,45,0.0,0.0,87,0.00,,---,0.04,VWS V13.01,2013-05-31 10:51:00,
2013-05-31 06:52:00,78.4,74.2,30.03,SE,135,3.1,3.1,87,0.00,,---,0.04,VWS V13.01,2013-05-31 10:52:00,
2013-05-31 06:56:00,78.4,74.2,30.03,NE,45,0.0,0.0,87,0.00,,---,0.04,VWS V13.01,2013-05-31 10:56:00,
2013-05-31 06:57:00,78.4,74.2,30.03,ESE,112,1.7,1.7,87,0.00,,---,0.04,VWS V13.01,2013-05-31 10:57:00,
2013-05-31 06:58:00,78.4,74.2,30.03,ESE,112,1.7,1.7,87,0.00,,---,0.04,VWS V13.01,2013-05-31 10:58:00,
2013-05-31 07:01:00,78.2,74.0,30.03,East,90,0.0,0.0,87,0.00,,---,0.04,VWS V13.01,2013-05-31 11:01:00,
2013-05-31 07:02:00,78.2,74.0,30.03,ENE,68,1.7,1.7,87,0.02,,---,0.06,VWS V13.01,2013-05-31 11:02:00,
2013-05-31 07:03:00,78.0,73.8,30.03,ESE,112,0.0,1.7,87,0.02,,---,0.06,VWS V13.01,2013-05-31 11:03:00,
2013-05-31 07:06:00,78.0,73.8,30.03,ESE,112,2.4,2.4,87,0.02,,---,0.06,VWS V13.01,2013-05-31 11:06:00,
2013-05-31 07:07:00,78.0,73.8,30.03,SE,135,0.0,0.0,87,0.02,,---,0.06,VWS V13.01,2013-05-31 11:07:00,
2013-05-31 07:08:00,78.0,73.8,30.03,SE,135,0.0,0.0,87,0.02,,---,0.06,VWS V13.01,2013-05-31 11:08:00,
2013-05-31 07:11:00,78.0,73.8,30.04,SE,135,1.7,1.7,87,0.02,,---,0.06,VWS V13.01,2013-05-31 11:11:00,
2013-05-31 07:12:00,78.0,73.8,30.04,SE,135,0.0,0.0,87,0.02,,---,0.06,VWS V13.01,2013-05-31 11:12:00,
2013-05-31 07:13:00,78.0,73.8,30.04,SE,135,0.0,0.0,87,0.02,,---,0.06,VWS V13.01,2013-05-31 11:13:00,
2013-05-31 07:16:00,78.0,73.8,30.05,NE,45,2.4,2.4,87,0.02,,---,0.06,VWS V13.01,2013-05-31 11:16:00,
2013-05-31 07:17:00,78.0,73.8,30.05,SE,135,2.4,2.4,87,0.02,,---,0.06,VWS V13.01,2013-05-31 11:17:00,
2013-05-31 07:18:00,78.0,73.8,30.05,SE,135,2.4,2.4,87,0.02,,---,0.06,VWS V13.01,2013-05-31 11:18:00,
2013-05-31 07:21:00,77.7,73.5,30.05,SE,135,5.5,5.5,87,0.06,,---,0.10,VWS V13.01,2013-05-31 11:21:00,
2013-05-31 07:22:00,77.5,73.3,30.05,SE,135,2.4,2.4,87,0.06,,---,0.10,VWS V13.01,2013-05-31 11:22:00,
2013-05-31 07:23:00,77.5,73.3,30.05,SE,135,2.4,2.4,87,0.06,,---,0.10,VWS V13.01,2013-05-31 11:23:00,
2013-05-31 07:26:00,77.1,72.9,30.05,ESE,112,2.4,2.4,87,0.08,,---,0.12,VWS V13.01,2013-05-31 11:26:00,
2013-05-31 07:27:00,76.8,72.6,30.04,SE,135,3.1,3.1,87,0.08,,---,0.12,VWS V13.01,2013-05-31 11:27:00,
2013-05-31 07:28:00,76.8,72.6,30.04,SE,135,3.1,3.1,87,0.08,,---,0.12,VWS V13.01,2013-05-31 11:28:00,
2013-05-31 07:31:00,76.6,72.4,30.05,SE,135,0.8,0.8,87,0.12,,---,0.16,VWS V13.01,2013-05-31 11:31:00,
2013-05-31 07:32:00,76.6,72.4,30.04,South,180,0.0,0.0,87,0.12,,---,0.16,VWS V13.01,2013-05-31 11:32:00,
2013-05-31 07:33:00,76.4,72.2,30.04,ENE,68,2.2,2.2,87,0.12,,---,0.16,VWS V13.01,2013-05-31 11:33:00,
2013-05-31 07:37:00,76.2,72.1,30.04,SE,135,6.0,6.0,87,0.14,,---,0.18,VWS V13.01,2013-05-31 11:37:00,
2013-05-31 07:38:00,75.9,71.8,30.04,ESE,112,1.7,1.7,87,0.14,,---,0.18,VWS V13.01,2013-05-31 11:38:00,
2013-05-31 07:42:00,75.9,71.8,30.05,SE,135,0.0,0.0,87,0.14,,---,0.18,VWS V13.01,2013-05-31 11:42:00,
2013-05-31 07:43:00,75.7,71.9,30.05,East,90,1.1,1.1,88,0.14,,---,0.18,VWS V13.01,2013-05-31 11:43:00,
2013-05-31 07:47:00,75.7,71.9,30.05,ESE,112,0.0,0.0,88,0.14,,---,0.18,VWS V13.01,2013-05-31 11:47:00,
2013-05-31 07:48:00,75.7,71.9,30.05,NE,45,1.5,1.5,88,0.14,,---,0.18,VWS V13.01,2013-05-31 11:48:00,
2013-05-31 07:52:00,75.7,71.9,30.05,ESE,112,4.4,5.3,88,0.16,,---,0.20,VWS V13.01,2013-05-31 11:52:00,
2013-05-31 07:53:00,75.7,71.9,30.05,South,180,1.1,1.1,88,0.16,,---,0.20,VWS V13.01,2013-05-31 11:53:00,
2013-05-31 07:57:00,75.7,71.9,30.05,SSE,158,2.6,2.6,88,0.16,,---,0.20,VWS V13.01,2013-05-31 11:57:00,
2013-05-31 07:58:00,75.7,71.9,30.05,ESE,112,0.0,0.0,88,0.16,,---,0.20,VWS V13.01,2013-05-31 11:58:00,
2013-05-31 07:59:00,75.7,71.9,30.05,ESE,112,0.0,0.0,88,0.16,,---,0.20,VWS V13.01,2013-05-31 11:59:00,
2013-05-31 08:02:00,75.7,71.9,30.05,ESE,112,0.0,0.0,88,0.14,,---,0.20,VWS V13.01,2013-05-31 12:02:00,
2013-05-31 08:03:00,75.7,71.9,30.05,SSE,158,4.6,4.6,88,0.14,,---,0.20,VWS V13.01,2013-05-31 12:03:00,
2013-05-31 08:04:00,75.7,71.9,30.05,SSE,158,4.6,4.6,88,0.14,,---,0.20,VWS V13.01,2013-05-31 12:04:00,
2013-05-31 08:07:00,75.7,71.9,30.05,ESE,112,2.4,2.4,88,0.16,,---,0.22,VWS V13.01,2013-05-31 12:07:00,
2013-05-31 08:08:00,75.5,71.7,30.05,ENE,68,0.0,0.0,88,0.16,,---,0.22,VWS V13.01,2013-05-31 12:08:00,
2013-05-31 08:09:00,75.5,71.7,30.05,ENE,68,0.0,0.0,88,0.16,,---,0.22,VWS V13.01,2013-05-31 12:09:00,
2013-05-31 08:12:00,75.5,71.7,30.05,ESE,112,0.0,0.0,88,0.16,,---,0.22,VWS V13.01,2013-05-31 12:12:00,
2013-05-31 08:13:00,75.5,71.7,30.05,SSE,158,1.3,1.3,88,0.16,,---,0.22,VWS V13.01,2013-05-31 12:13:00,
2013-05-31 08:14:00,75.5,71.7,30.05,SSE,158,1.3,1.3,88,0.16,,---,0.22,VWS V13.01,2013-05-31 12:14:00,
2013-05-31 08:17:00,75.7,71.9,30.05,ESE,112,1.5,1.5,88,0.16,,---,0.22,VWS V13.01,2013-05-31 12:17:00,
2013-05-31 08:18:00,75.7,71.9,30.06,ENE,68,4.0,4.0,88,0.16,,---,0.22,VWS V13.01,2013-05-31 12:18:00,
2013-05-31 08:19:00,75.7,71.9,30.06,ENE,68,4.0,4.0,88,0.16,,---,0.22,VWS V13.01,2013-05-31 12:19:00,
2013-05-31 08:22:00,75.7,71.6,30.06,ENE,68,2.9,2.9,87,0.12,,---,0.22,VWS V13.01,2013-05-31 12:22:00,
2013-05-31 08:23:00,75.9,71.8,30.06,NE,45,1.7,1.7,87,0.10,,---,0.22,VWS V13.01,2013-05-31 12:23:00,
2013-05-31 08:24:00,75.9,71.8,30.06,NE,45,1.7,1.7,87,0.10,,---,0.22,VWS V13.01,2013-05-31 12:24:00,
2013-05-31 08:27:00,75.9,71.8,30.06,SSE,158,0.0,0.0,87,0.08,,---,0.22,VWS V13.01,2013-05-31 12:27:00,
2013-05-31 08:28:00,75.9,71.8,30.06,SE,135,0.0,0.0,87,0.08,,---,0.22,VWS V13.01,2013-05-31 12:28:00,
2013-05-31 08:29:00,75.9,71.8,30.06,SE,135,0.0,0.0,87,0.08,,---,0.22,VWS V13.01,2013-05-31 12:29:00,
2013-05-31 08:32:00,76.1,71.9,30.06,SE,135,0.0,0.0,87,0.04,,---,0.22,VWS V13.01,2013-05-31 12:32:00,
2013-05-31 08:33:00,76.1,71.9,30.06,SE,135,0.0,0.0,87,0.06,,---,0.24,VWS V13.01,2013-05-31 12:33:00,
2013-05-31 08:34:00,76.1,71.9,30.06,SE,135,0.0,0.0,87,0.06,,---,0.24,VWS V13.01,2013-05-31 12:34:00,
2013-05-31 08:37:00,76.1,71.9,30.06,ENE,68,0.0,0.0,87,0.06,,---,0.24,VWS V13.01,2013-05-31 12:37:00,
2013-05-31 08:38:00,76.1,71.9,30.06,SE,135,2.0,2.0,87,0.06,,---,0.24,VWS V13.01,2013-05-31 12:38:00,
2013-05-31 08:39:00,76.1,71.9,30.06,SE,135,2.0,2.0,87,0.06,,---,0.24,VWS V13.01,2013-05-31 12:39:00,
2013-05-31 08:42:00,76.2,72.1,30.06,SE,135,4.2,4.2,87,0.06,,---,0.24,VWS V13.01,2013-05-31 12:42:00,
2013-05-31 08:43:00,76.2,72.1,30.07,SSE,158,0.0,0.0,87,0.06,,---,0.24,VWS V13.01,2013-05-31 12:43:00,
2013-05-31 08:44:00,76.2,72.1,30.07,SSE,158,0.0,0.0,87,0.06,,---,0.24,VWS V13.01,2013-05-31 12:44:00,
2013-05-31 08:47:00,76.2,72.1,30.07,SSE,158,2.0,2.0,87,0.04,,---,0.24,VWS V13.01,2013-05-31 12:47:00,
2013-05-31 08:48:00,76.2,72.1,30.06,East,90,3.5,3.5,87,0.04,,---,0.24,VWS V13.01,2013-05-31 12:48:00,
2013-05-31 08:49:00,76.2,72.1,30.06,ESE,112,0.0,0.0,87,0.04,,---,0.24,VWS V13.01,2013-05-31 12:49:00,
2013-05-31 08:52:00,76.2,72.1,30.06,ESE,112,0.0,0.0,87,0.04,,---,0.24,VWS V13.01,2013-05-31 12:52:00,
2013-05-31 08:53:00,76.2,72.1,30.06,SSE,158,0.0,0.0,87,0.04,,---,0.24,VWS V13.01,2013-05-31 12:53:00,
2013-05-31 08:54:00,76.2,72.1,30.06,ESE,112,0.0,0.0,87,0.04,,---,0.24,VWS V13.01,2013-05-31 12:54:00,
2013-05-31 08:58:00,76.6,72.8,30.06,SSE,158,0.0,0.0,88,0.06,,---,0.26,VWS V13.01,2013-05-31 12:58:00,
2013-05-31 08:59:00,76.6,72.8,30.06,SE,135,0.0,0.0,88,0.06,,---,0.26,VWS V13.01,2013-05-31 12:59:00,
2013-05-31 09:03:00,76.8,73.0,30.06,SE,135,0.0,0.0,88,0.04,,---,0.26,VWS V13.01,2013-05-31 13:03:00,
2013-05-31 09:04:00,76.6,72.8,30.06,SE,135,0.0,0.0,88,0.04,,---,0.26,VWS V13.01,2013-05-31 13:04:00,
2013-05-31 09:08:00,76.8,73.0,30.06,SE,135,0.0,0.0,88,0.04,,---,0.26,VWS V13.01,2013-05-31 13:08:00,
2013-05-31 09:09:00,76.8,73.0,30.06,SE,135,0.0,0.0,88,0.04,,---,0.26,VWS V13.01,2013-05-31 13:09:00,
2013-05-31 09:10:00,76.8,73.0,30.07,SE,135,0.0,0.0,88,0.04,,---,0.26,VWS V13.01,2013-05-31 13:10:00,
2013-05-31 09:13:00,76.8,73.0,30.07,East,90,0.0,0.0,88,0.04,,---,0.26,VWS V13.01,2013-05-31 13:13:00,
2013-05-31 09:14:00,76.8,73.0,30.07,ENE,68,1.3,1.3,88,0.04,,---,0.26,VWS V13.01,2013-05-31 13:14:00,
2013-05-31 09:15:00,76.8,73.0,30.07,NE,45,0.0,0.0,88,0.04,,---,0.26,VWS V13.01,2013-05-31 13:15:00,
2013-05-31 09:19:00,77.1,73.3,30.07,ESE,112,0.0,0.0,88,0.04,,---,0.26,VWS V13.01,2013-05-31 13:19:00,
2013-05-31 09:20:00,77.1,73.3,30.07,SE,135,0.0,0.0,88,0.04,,---,0.26,VWS V13.01,2013-05-31 13:20:00,
2013-05-31 09:24:00,77.3,73.5,30.07,South,180,0.0,0.0,88,0.04,,---,0.26,VWS V13.01,2013-05-31 13:24:00,
2013-05-31 09:25:00,77.3,73.5,30.07,South,180,0.0,0.0,88,0.04,,---,0.26,VWS V13.01,2013-05-31 13:25:00,
2013-05-31 09:29:00,77.5,73.7,30.07,South,180,2.0,2.0,88,0.04,,---,0.26,VWS V13.01,2013-05-31 13:29:00,
2013-05-31 09:30:00,77.5,73.7,30.07,ESE,112,1.7,1.7,88,0.02,,---,0.26,VWS V13.01,2013-05-31 13:30:00,
2013-05-31 09:34:00,77.5,73.7,30.07,SSE,158,0.0,0.0,88,0.02,,---,0.26,VWS V13.01,2013-05-31 13:34:00,
2013-05-31 09:35:00,77.7,73.9,30.07,SE,135,2.4,2.4,88,0.02,,---,0.26,VWS V13.01,2013-05-31 13:35:00,
2013-05-31 09:39:00,77.7,73.9,30.07,SSE,158,5.1,5.1,88,0.02,,---,0.26,VWS V13.01,2013-05-31 13:39:00,
2013-05-31 09:40:00,77.7,73.9,30.07,SSE,158,2.4,2.4,88,0.02,,---,0.26,VWS V13.01,2013-05-31 13:40:00,
2013-05-31 09:44:00,77.9,73.7,30.07,South,180,2.0,2.0,87,0.02,,---,0.26,VWS V13.01,2013-05-31 13:44:00,
2013-05-31 09:45:00,77.7,73.5,30.07,SSE,158,0.0,0.0,87,0.02,,---,0.26,VWS V13.01,2013-05-31 13:45:00,
2013-05-31 09:49:00,78.0,73.8,30.07,South,180,0.0,0.0,87,0.02,,---,0.26,VWS V13.01,2013-05-31 13:49:00,
2013-05-31 09:50:00,77.9,73.7,30.07,South,180,0.0,0.0,87,0.02,,---,0.26,VWS V13.01,2013-05-31 13:50:00,
2013-05-31 09:54:00,78.0,73.8,30.07,SSE,158,2.2,2.2,87,0.02,,---,0.26,VWS V13.01,2013-05-31 13:54:00,
2013-05-31 09:55:00,78.0,73.8,30.07,SSE,158,2.2,2.2,87,0.02,,---,0.26,VWS V13.01,2013-05-31 13:55:00,
2013-05-31 09:59:00,78.0,74.2,30.07,SSE,158,3.5,3.5,88,0.00,,---,0.26,VWS V13.01,2013-05-31 13:59:00,
2013-05-31 10:00:00,78.0,74.2,30.07,SSE,158,3.5,3.5,88,0.00,,---,0.26,VWS V13.01,2013-05-31 14:00:00,
2013-05-31 10:05:00,78.4,74.2,30.07,ESE,112,1.5,1.5,87,0.00,,---,0.26,VWS V13.01,2013-05-31 14:05:00,
2013-05-31 10:10:00,78.4,74.2,30.07,SE,135,0.8,0.8,87,0.00,,---,0.26,VWS V13.01,2013-05-31 14:10:00,
2013-05-31 10:15:00,78.6,74.1,30.07,SE,135,3.3,3.3,86,0.00,,---,0.26,VWS V13.01,2013-05-31 14:15:00,
2013-05-31 10:20:00,78.6,74.1,30.07,South,180,2.6,2.6,86,0.00,,---,0.26,VWS V13.01,2013-05-31 14:20:00,
2013-05-31 10:25:00,78.6,74.1,30.07,SE,135,0.0,0.0,86,0.00,,---,0.26,VWS V13.01,2013-05-31 14:25:00,
2013-05-31 10:30:00,78.9,74.4,30.07,ESE,112,0.0,0.0,86,0.00,,---,0.26,VWS V13.01,2013-05-31 14:30:00,
2013-05-31 10:35:00,79.1,74.6,30.06,SE,135,0.0,0.0,86,0.00,,---,0.26,VWS V13.01,2013-05-31 14:35:00,
2013-05-31 10:40:00,79.3,74.8,30.07,SE,135,0.0,0.0,86,0.00,,---,0.26,VWS V13.01,2013-05-31 14:40:00,
2013-05-31 10:45:00,79.7,75.2,30.06,SE,135,0.0,0.0,86,0.00,,---,0.26,VWS V13.01,2013-05-31 14:45:00,
2013-05-31 10:46:00,79.7,75.2,30.06,SE,135,0.0,0.0,86,0.00,,---,0.26,VWS V13.01,2013-05-31 14:46:00,
2013-05-31 10:50:00,80.0,75.4,30.06,SE,135,0.0,0.0,86,0.00,,---,0.26,VWS V13.01,2013-05-31 14:50:00,
2013-05-31 10:51:00,80.0,75.4,30.06,SE,135,0.0,0.0,86,0.00,,---,0.26,VWS V13.01,2013-05-31 14:51:00,
2013-05-31 10:55:00,80.4,75.8,30.06,SSE,158,0.0,0.0,86,0.00,,---,0.26,VWS V13.01,2013-05-31 14:55:00,
2013-05-31 10:56:00,80.4,75.8,30.06,SSE,158,0.0,0.0,86,0.00,,---,0.26,VWS V13.01,2013-05-31 14:56:00,
2013-05-31 11:00:00,80.7,76.1,30.06,ENE,68,4.4,4.4,86,0.00,,---,0.26,VWS V13.01,2013-05-31 15:00:00,
2013-05-31 11:01:00,80.7,76.1,30.06,ENE,68,4.4,4.4,86,0.00,,---,0.26,VWS V13.01,2013-05-31 15:01:00,
2013-05-31 11:05:00,81.3,76.4,30.05,SE,135,3.8,3.8,85,0.00,,---,0.26,VWS V13.01,2013-05-31 15:05:00,
2013-05-31 11:06:00,81.3,76.4,30.05,East,90,4.4,4.4,85,0.00,,---,0.26,VWS V13.01,2013-05-31 15:06:00,
2013-05-31 11:10:00,81.6,76.7,30.06,East,90,0.0,0.0,85,0.00,,---,0.26,VWS V13.01,2013-05-31 15:10:00,
2013-05-31 11:11:00,82.0,76.7,30.05,ENE,68,2.4,2.4,84,0.00,,---,0.26,VWS V13.01,2013-05-31 15:11:00,
2013-05-31 11:15:00,82.2,76.9,30.05,NE,45,1.3,1.3,84,0.00,,---,0.26,VWS V13.01,2013-05-31 15:15:00,
2013-05-31 11:16:00,82.4,77.1,30.05,East,90,1.3,1.3,84,0.00,,---,0.26,VWS V13.01,2013-05-31 15:16:00,
2013-05-31 11:21:00,82.5,76.8,30.05,ENE,68,2.9,2.9,83,0.00,,---,0.26,VWS V13.01,2013-05-31 15:21:00,
2013-05-31 11:26:00,82.9,77.2,30.04,SE,135,0.0,0.0,83,0.00,,---,0.26,VWS V13.01,2013-05-31 15:26:00,
2013-05-31 11:31:00,83.4,77.3,30.04,East,90,4.4,4.4,82,0.00,,---,0.26,VWS V13.01,2013-05-31 15:31:00,
2013-05-31 11:36:00,83.8,77.7,30.04,ENE,68,3.8,3.8,82,0.00,,---,0.26,VWS V13.01,2013-05-31 15:36:00,
2013-05-31 11:41:00,83.6,77.5,30.04,East,90,0.0,0.0,82,0.00,,---,0.26,VWS V13.01,2013-05-31 15:41:00,
2013-05-31 11:46:00,83.6,77.5,30.04,SSE,158,0.0,0.0,82,0.00,,---,0.26,VWS V13.01,2013-05-31 15:46:00,
2013-05-31 11:47:00,83.6,77.5,30.04,SSE,158,0.0,0.0,82,0.00,,---,0.26,VWS V13.01,2013-05-31 15:47:00,
2013-05-31 11:51:00,83.8,77.7,30.04,SE,135,0.0,0.0,82,0.00,,---,0.26,VWS V13.01,2013-05-31 15:51:00,
2013-05-31 11:52:00,83.8,77.7,30.04,SE,135,0.0,0.0,82,0.00,,---,0.26,VWS V13.01,2013-05-31 15:52:00,
2013-05-31 11:56:00,84.0,77.5,30.04,NE,45,0.0,0.0,81,0.00,,---,0.26,VWS V13.01,2013-05-31 15:56:00,
2013-05-31 11:57:00,84.0,77.5,30.04,NE,45,0.0,0.0,81,0.00,,---,0.26,VWS V13.01,2013-05-31 15:57:00,
2013-05-31 12:01:00,84.0,77.2,30.04,East,90,0.0,0.0,80,0.00,,---,0.26,VWS V13.01,2013-05-31 16:01:00,
2013-05-31 12:02:00,84.0,77.2,30.04,East,90,0.0,0.0,80,0.00,,---,0.26,VWS V13.01,2013-05-31 16:02:00,
2013-05-31 12:06:00,84.5,77.7,30.04,East,90,0.0,0.0,80,0.00,,---,0.26,VWS V13.01,2013-05-31 16:06:00,
2013-05-31 12:07:00,84.5,77.7,30.04,East,90,0.0,0.0,80,0.00,,---,0.26,VWS V13.01,2013-05-31 16:07:00,
2013-05-31 12:11:00,84.7,77.5,30.04,ENE,68,0.0,0.0,79,0.00,,---,0.26,VWS V13.01,2013-05-31 16:11:00,
2013-05-31 12:12:00,84.9,77.7,30.04,North,0,0.0,0.0,79,0.00,,---,0.26,VWS V13.01,2013-05-31 16:12:00,
2013-05-31 12:16:00,85.2,77.9,30.04,ENE,68,6.2,6.2,79,0.00,,---,0.26,VWS V13.01,2013-05-31 16:16:00,
2013-05-31 12:17:00,85.2,77.6,30.04,SE,135,7.3,7.3,78,0.00,,---,0.26,VWS V13.01,2013-05-31 16:17:00,
2013-05-31 12:21:00,85.2,77.6,30.04,SE,135,0.6,0.6,78,0.00,,---,0.26,VWS V13.01,2013-05-31 16:21:00,
2013-05-31 12:22:00,85.2,77.6,30.04,SE,135,0.6,0.6,78,0.00,,---,0.26,VWS V13.01,2013-05-31 16:22:00,
2013-05-31 12:26:00,85.2,77.6,30.03,ENE,68,1.1,1.1,78,0.00,,---,0.26,VWS V13.01,2013-05-31 16:26:00,
2013-05-31 12:27:00,85.2,77.6,30.03,ENE,68,9.6,9.6,78,0.00,,---,0.26,VWS V13.01,2013-05-31 16:27:00,
2013-05-31 12:31:00,85.2,77.2,30.03,SE,135,4.6,4.6,77,0.00,,---,0.26,VWS V13.01,2013-05-31 16:31:00,
2013-05-31 12:32:00,85.2,77.2,30.03,SE,135,4.6,4.6,77,0.00,,---,0.26,VWS V13.01,2013-05-31 16:32:00,
2013-05-31 12:36:00,85.8,77.8,30.03,East,90,0.0,0.0,77,0.00,,---,0.26,VWS V13.01,2013-05-31 16:36:00,
2013-05-31 12:37:00,85.8,77.8,30.03,East,90,0.0,0.0,77,0.00,,---,0.26,VWS V13.01,2013-05-31 16:37:00,
2013-05-31 12:38:00,85.8,77.8,30.03,NNW,338,0.0,0.0,77,0.00,,---,0.26,VWS V13.01,2013-05-31 16:38:00,
2013-05-31 12:41:00,86.1,77.7,30.03,NE,45,6.4,6.4,76,0.00,,---,0.26,VWS V13.01,2013-05-31 16:41:00,
2013-05-31 12:42:00,86.3,77.8,30.03,ESE,112,5.3,5.3,76,0.00,,---,0.26,VWS V13.01,2013-05-31 16:42:00,
2013-05-31 12:43:00,86.3,77.8,30.03,ESE,112,11.8,11.8,76,0.00,,---,0.26,VWS V13.01,2013-05-31 16:43:00,
2013-05-31 12:46:00,86.5,77.6,30.03,ENE,68,2.0,2.0,75,0.00,,---,0.26,VWS V13.01,2013-05-31 16:46:00,
2013-05-31 12:47:00,86.5,77.6,30.03,ENE,68,5.1,5.1,75,0.00,,---,0.26,VWS V13.01,2013-05-31 16:47:00,
2013-05-31 12:48:00,86.7,77.8,30.03,ESE,112,0.0,0.0,75,0.00,,---,0.26,VWS V13.01,2013-05-31 16:48:00,
2013-05-31 12:51:00,87.0,78.1,30.03,East,90,12.9,12.9,75,0.02,,---,0.28,VWS V13.01,2013-05-31 16:51:00,
2013-05-31 12:52:00,87.2,78.3,30.03,ENE,68,3.8,3.8,75,0.02,,---,0.28,VWS V13.01,2013-05-31 16:52:00,
2013-05-31 12:53:00,87.4,78.5,30.03,ENE,68,2.0,2.0,75,0.02,,---,0.28,VWS V13.01,2013-05-31 16:53:00,
2013-05-31 12:56:00,87.6,78.3,30.02,East,90,4.9,4.9,74,0.02,,---,0.28,VWS V13.01,2013-05-31 16:56:00,
2013-05-31 12:57:00,87.6,78.3,30.02,East,90,6.0,6.0,74,0.02,,---,0.28,VWS V13.01,2013-05-31 16:57:00,
2013-05-31 12:58:00,87.8,78.5,30.02,SE,135,1.1,1.1,74,0.02,,---,0.28,VWS V13.01,2013-05-31 16:58:00,
2013-05-31 13:01:00,88.1,78.4,30.03,SE,135,0.0,0.0,73,0.02,,---,0.28,VWS V13.01,2013-05-31 17:01:00,
2013-05-31 13:02:00,88.1,78.4,30.02,NNW,338,0.0,0.0,73,0.02,,---,0.28,VWS V13.01,2013-05-31 17:02:00,
2013-05-31 13:03:00,88.3,78.6,30.02,East,90,17.6,17.6,73,0.02,,---,0.28,VWS V13.01,2013-05-31 17:03:00,
2013-05-31 13:06:00,88.5,78.3,30.02,East,90,8.0,8.0,72,0.02,,---,0.28,VWS V13.01,2013-05-31 17:06:00,
2013-05-31 13:07:00,88.3,78.1,30.02,East,90,8.0,8.0,72,0.02,,---,0.28,VWS V13.01,2013-05-31 17:07:00,
2013-05-31 13:08:00,88.3,78.1,30.02,ENE,68,6.2,6.2,72,0.02,,---,0.28,VWS V13.01,2013-05-31 17:08:00,
2013-05-31 13:11:00,87.9,77.8,30.02,East,90,13.8,13.8,72,0.02,,---,0.28,VWS V13.01,2013-05-31 17:11:00,
2013-05-31 13:12:00,87.9,77.8,30.02,East,90,7.6,7.6,72,0.02,,---,0.28,VWS V13.01,2013-05-31 17:12:00,
2013-05-31 13:13:00,87.6,77.5,30.02,ESE,112,4.6,4.6,72,0.02,,---,0.28,VWS V13.01,2013-05-31 17:13:00,
2013-05-31 13:16:00,87.4,77.3,30.02,SSE,158,0.0,0.0,72,0.02,,---,0.28,VWS V13.01,2013-05-31 17:16:00,
2013-05-31 13:17:00,87.2,77.1,30.02,ENE,68,0.0,0.0,72,0.02,,---,0.28,VWS V13.01,2013-05-31 17:17:00,
2013-05-31 13:18:00,87.0,77.3,30.02,SSE,158,0.0,0.0,73,0.02,,---,0.28,VWS V13.01,2013-05-31 17:18:00,
2013-05-31 13:22:00,87.0,77.3,30.02,East,90,5.1,5.1,73,0.02,,---,0.28,VWS V13.01,2013-05-31 17:22:00,
2013-05-31 13:23:00,86.9,77.2,30.02,East,90,3.3,4.4,73,0.02,,---,0.28,VWS V13.01,2013-05-31 17:23:00,
2013-05-31 13:27:00,86.5,77.2,30.02,ESE,112,4.4,4.4,74,0.02,,---,0.28,VWS V13.01,2013-05-31 17:27:00,
2013-05-31 13:28:00,86.5,77.2,30.02,ESE,112,6.0,6.0,74,0.02,,---,0.28,VWS V13.01,2013-05-31 17:28:00,
2013-05-31 13:29:00,86.3,76.6,30.02,ENE,68,10.2,10.5,73,0.02,,---,0.28,VWS V13.01,2013-05-31 17:29:00,
2013-05-31 13:32:00,86.1,76.8,30.02,East,90,7.8,7.8,74,0.02,,---,0.28,VWS V13.01,2013-05-31 17:32:00,
2013-05-31 13:33:00,86.1,76.8,30.01,South,180,3.8,3.8,74,0.02,,---,0.28,VWS V13.01,2013-05-31 17:33:00,
2013-05-31 13:34:00,86.1,76.8,30.01,East,90,12.3,12.3,74,0.02,,---,0.28,VWS V13.01,2013-05-31 17:34:00,
2013-05-31 13:37:00,85.8,76.6,30.01,East,90,0.0,0.0,74,0.02,,---,0.28,VWS V13.01,2013-05-31 17:37:00,
2013-05-31 13:38:00,85.8,76.6,30.01,ENE,68,6.2,6.2,74,0.02,,---,0.28,VWS V13.01,2013-05-31 17:38:00,
2013-05-31 13:39:00,85.8,76.6,30.01,NE,45,10.5,10.5,74,0.02,,---,0.28,VWS V13.01,2013-05-31 17:39:00,
2013-05-31 13:42:00,85.6,76.4,30.01,ENE,68,6.2,6.2,74,0.02,,---,0.28,VWS V13.01,2013-05-31 17:42:00,
2013-05-31 13:43:00,85.6,76.4,30.01,ENE,68,6.2,6.2,74,0.02,,---,0.28,VWS V13.01,2013-05-31 17:43:00,
2013-05-31 13:44:00,85.2,76.0,30.01,ESE,112,5.8,5.8,74,0.02,,---,0.28,VWS V13.01,2013-05-31 17:44:00,
2013-05-31 13:47:00,85.1,76.3,30.01,East,90,6.4,6.4,75,0.00,,---,0.28,VWS V13.01,2013-05-31 17:47:00,
2013-05-31 13:48:00,85.1,76.3,30.01,East,90,6.4,6.4,75,0.00,,---,0.28,VWS V13.01,2013-05-31 17:48:00,
2013-05-31 13:49:00,84.9,76.1,30.01,East,90,9.1,9.1,75,0.00,,---,0.28,VWS V13.01,2013-05-31 17:49:00,
2013-05-31 13:52:00,84.7,75.9,30.01,ENE,68,9.6,9.6,75,0.00,,---,0.28,VWS V13.01,2013-05-31 17:52:00,
2013-05-31 13:53:00,84.7,76.3,30.01,NNE,22,5.5,5.5,76,0.00,,---,0.28,VWS V13.01,2013-05-31 17:53:00,
2013-05-31 13:54:00,84.7,76.3,30.01,ENE,68,1.7,1.7,76,0.00,,---,0.28,VWS V13.01,2013-05-31 17:54:00,
2013-05-31 13:57:00,84.7,76.3,30.01,SE,135,2.4,2.4,76,0.00,,---,0.28,VWS V13.01,2013-05-31 17:57:00,
2013-05-31 13:58:00,84.5,76.1,30.00,ENE,68,0.0,0.0,76,0.00,,---,0.28,VWS V13.01,2013-05-31 17:58:00,
2013-05-31 13:59:00,84.5,76.1,30.00,East,90,9.1,9.1,76,0.00,,---,0.28,VWS V13.01,2013-05-31 17:59:00,
2013-05-31 14:02:00,84.5,76.1,30.00,SE,135,0.0,0.0,76,0.00,,---,0.28,VWS V13.01,2013-05-31 18:02:00,
2013-05-31 14:03:00,84.5,76.1,30.00,ENE,68,3.8,3.8,76,0.00,,---,0.28,VWS V13.01,2013-05-31 18:03:00,
2013-05-31 14:04:00,84.3,76.3,30.00,ENE,68,0.0,0.0,77,0.00,,---,0.28,VWS V13.01,2013-05-31 18:04:00,
2013-05-31 14:07:00,84.3,76.3,30.00,ENE,68,3.8,3.8,77,0.00,,---,0.28,VWS V13.01,2013-05-31 18:07:00,
2013-05-31 14:08:00,84.2,76.2,30.00,East,90,3.8,3.8,77,0.00,,---,0.28,VWS V13.01,2013-05-31 18:08:00,
2013-05-31 14:09:00,84.0,76.4,30.00,East,90,2.4,2.4,78,0.00,,---,0.28,VWS V13.01,2013-05-31 18:09:00,
2013-05-31 14:13:00,84.0,76.8,30.00,ESE,112,9.1,9.1,79,0.00,,---,0.28,VWS V13.01,2013-05-31 18:13:00,
2013-05-31 14:14:00,83.8,76.6,29.99,ESE,112,2.9,2.9,79,0.00,,---,0.28,VWS V13.01,2013-05-31 18:14:00,
2013-05-31 14:18:00,83.6,76.4,29.99,ESE,112,1.1,1.1,79,0.00,,---,0.28,VWS V13.01,2013-05-31 18:18:00,
2013-05-31 14:19:00,83.4,76.2,29.99,South,180,2.0,2.0,79,0.00,,---,0.28,VWS V13.01,2013-05-31 18:19:00,
2013-05-31 14:23:00,83.4,76.2,29.99,NNE,22,0.0,0.0,79,0.00,,---,0.28,VWS V13.01,2013-05-31 18:23:00,
2013-05-31 14:24:00,83.4,76.2,29.99,NNE,22,0.0,0.0,79,0.00,,---,0.28,VWS V13.01,2013-05-31 18:24:00,
2013-05-31 14:28:00,83.4,76.2,29.99,ENE,68,3.1,3.1,79,0.00,,---,0.28,VWS V13.01,2013-05-31 18:28:00,
2013-05-31 14:29:00,83.4,76.2,29.99,ENE,68,3.1,3.1,79,0.00,,---,0.28,VWS V13.01,2013-05-31 18:29:00,
2013-05-31 14:30:00,83.4,76.2,29.99,East,90,0.0,1.3,79,0.00,,---,0.28,VWS V13.01,2013-05-31 18:30:00,
2013-05-31 14:33:00,83.4,76.2,30.00,East,90,2.0,2.0,79,0.00,,---,0.28,VWS V13.01,2013-05-31 18:33:00,
2013-05-31 14:34:00,83.4,76.2,30.00,East,90,2.0,2.0,79,0.00,,---,0.28,VWS V13.01,2013-05-31 18:34:00,
2013-05-31 14:35:00,83.6,76.4,29.99,ESE,112,1.5,1.5,79,0.00,,---,0.28,VWS V13.01,2013-05-31 18:35:00,
2013-05-31 14:38:00,83.4,75.8,29.99,ENE,68,7.1,7.1,78,0.00,,---,0.28,VWS V13.01,2013-05-31 18:38:00,
2013-05-31 14:39:00,83.4,75.8,29.99,ENE,68,7.1,7.1,78,0.00,,---,0.28,VWS V13.01,2013-05-31 18:39:00,
2013-05-31 14:40:00,83.6,76.4,29.99,ENE,68,8.2,8.2,79,0.00,,---,0.28,VWS V13.01,2013-05-31 18:40:00,
2013-05-31 14:43:00,83.4,75.8,29.99,ENE,68,3.5,3.5,78,0.00,,---,0.28,VWS V13.01,2013-05-31 18:43:00,
2013-05-31 14:44:00,83.4,75.8,29.99,ESE,112,0.0,3.5,78,0.00,,---,0.28,VWS V13.01,2013-05-31 18:44:00,
2013-05-31 14:45:00,83.6,76.0,29.99,East,90,7.6,7.6,78,0.00,,---,0.28,VWS V13.01,2013-05-31 18:45:00,
2013-05-31 14:48:00,83.4,76.2,30.00,SE,135,4.9,4.9,79,0.00,,---,0.28,VWS V13.01,2013-05-31 18:48:00,
2013-05-31 14:49:00,83.6,76.4,30.00,SSW,202,0.0,4.9,79,0.00,,---,0.28,VWS V13.01,2013-05-31 18:49:00,
2013-05-31 14:50:00,83.4,76.2,30.00,SE,135,4.2,4.2,79,0.00,,---,0.28,VWS V13.01,2013-05-31 18:50:00,
2013-05-31 14:53:00,83.4,76.2,30.00,NE,45,7.8,7.8,79,0.00,,---,0.28,VWS V13.01,2013-05-31 18:53:00,
2013-05-31 14:54:00,83.3,76.1,30.00,SE,135,3.8,3.8,79,0.00,,---,0.28,VWS V13.01,2013-05-31 18:54:00,
2013-05-31 14:55:00,83.3,76.1,30.00,NE,45,2.0,2.0,79,0.00,,---,0.28,VWS V13.01,2013-05-31 18:55:00,
2013-05-31 14:58:00,83.1,76.3,30.00,East,90,8.5,8.5,80,0.00,,---,0.28,VWS V13.01,2013-05-31 18:58:00,
2013-05-31 14:59:00,83.1,76.3,29.99,SSE,158,2.0,2.0,80,0.00,,---,0.28,VWS V13.01,2013-05-31 18:59:00,
2013-05-31 15:00:00,82.9,76.1,29.99,NE,45,0.0,0.0,80,0.00,,---,0.28,VWS V13.01,2013-05-31 19:00:00,
2013-05-31 15:04:00,82.9,76.1,29.99,ESE,112,0.0,0.0,80,0.00,,---,0.28,VWS V13.01,2013-05-31 19:04:00,
2013-05-31 15:05:00,82.9,76.5,29.99,ENE,68,2.9,2.9,81,0.00,,---,0.28,VWS V13.01,2013-05-31 19:05:00,
2013-05-31 15:09:00,82.7,76.3,29.99,ENE,68,1.3,1.3,81,0.00,,---,0.28,VWS V13.01,2013-05-31 19:09:00,
2013-05-31 15:10:00,82.7,76.7,29.99,ESE,112,0.0,1.3,82,0.00,,---,0.28,VWS V13.01,2013-05-31 19:10:00,
2013-05-31 15:14:00,82.5,76.4,29.99,East,90,1.5,1.5,82,0.00,,---,0.28,VWS V13.01,2013-05-31 19:14:00,
2013-05-31 15:15:00,82.5,76.4,29.99,East,90,2.2,2.2,82,0.00,,---,0.28,VWS V13.01,2013-05-31 19:15:00,
2013-05-31 15:16:00,82.5,76.4,29.99,East,90,2.2,2.2,82,0.00,,---,0.28,VWS V13.01,2013-05-31 19:16:00,
2013-05-31 15:19:00,82.5,76.4,29.98,East,90,4.4,4.4,82,0.00,,---,0.28,VWS V13.01,2013-05-31 19:19:00,
2013-05-31 15:20:00,82.5,76.1,29.98,SE,135,2.9,4.4,81,0.00,,---,0.28,VWS V13.01,2013-05-31 19:20:00,
2013-05-31 15:21:00,82.5,76.1,29.98,SE,135,2.9,2.9,81,0.00,,---,0.28,VWS V13.01,2013-05-31 19:21:00,
2013-05-31 15:24:00,82.5,75.7,29.98,ENE,68,0.8,0.8,80,0.00,,---,0.28,VWS V13.01,2013-05-31 19:24:00,
2013-05-31 15:25:00,82.5,75.7,29.98,ENE,68,3.1,3.1,80,0.00,,---,0.28,VWS V13.01,2013-05-31 19:25:00,
2013-05-31 15:26:00,82.5,75.7,29.98,ENE,68,3.1,3.1,80,0.00,,---,0.28,VWS V13.01,2013-05-31 19:26:00,
2013-05-31 15:29:00,82.2,75.4,29.99,East,90,8.5,8.5,80,0.00,,---,0.28,VWS V13.01,2013-05-31 19:29:00,
2013-05-31 15:30:00,82.5,75.7,29.99,East,90,1.3,1.3,80,0.00,,---,0.28,VWS V13.01,2013-05-31 19:30:00,
2013-05-31 15:31:00,82.4,75.6,29.99,SSW,202,0.0,0.0,80,0.00,,---,0.28,VWS V13.01,2013-05-31 19:31:00,
2013-05-31 15:34:00,82.4,76.0,29.99,ESE,112,8.9,8.9,81,0.00,,---,0.28,VWS V13.01,2013-05-31 19:34:00,
2013-05-31 15:35:00,82.2,75.8,29.99,ESE,112,0.0,0.0,81,0.00,,---,0.28,VWS V13.01,2013-05-31 19:35:00,
2013-05-31 15:36:00,82.4,76.0,29.99,ESE,112,6.0,6.0,81,0.00,,---,0.28,VWS V13.01,2013-05-31 19:36:00,
2013-05-31 15:39:00,82.4,76.0,29.99,East,90,5.3,5.3,81,0.00,,---,0.28,VWS V13.01,2013-05-31 19:39:00,
2013-05-31 15:40:00,82.2,75.8,29.99,ESE,112,3.3,3.3,81,0.00,,---,0.28,VWS V13.01,2013-05-31 19:40:00,
2013-05-31 15:41:00,82.2,75.8,29.98,ENE,68,1.3,1.3,81,0.00,,---,0.28,VWS V13.01,2013-05-31 19:41:00,
2013-05-31 15:44:00,82.2,75.8,29.99,ENE,68,6.4,6.4,81,0.00,,---,0.28,VWS V13.01,2013-05-31 19:44:00,
2013-05-31 15:45:00,82.2,75.8,29.99,NE,45,5.3,5.3,81,0.00,,---,0.28,VWS V13.01,2013-05-31 19:45:00,
2013-05-31 15:46:00,82.2,75.8,29.99,East,90,3.8,3.8,81,0.00,,---,0.28,VWS V13.01,2013-05-31 19:46:00,
2013-05-31 15:49:00,82.4,76.0,29.99,SSE,158,3.3,3.3,81,0.00,,---,0.28,VWS V13.01,2013-05-31 19:49:00,
2013-05-31 15:50:00,82.4,76.0,29.99,ENE,68,8.5,8.5,81,0.00,,---,0.28,VWS V13.01,2013-05-31 19:50:00,
2013-05-31 15:51:00,82.4,76.0,29.99,ENE,68,4.9,4.9,81,0.00,,---,0.28,VWS V13.01,2013-05-31 19:51:00,
2013-05-31 15:54:00,82.5,76.1,29.99,East,90,2.9,2.9,81,0.00,,---,0.28,VWS V13.01,2013-05-31 19:54:00,
2013-05-31 15:55:00,82.5,76.1,29.98,SSE,158,3.8,3.8,81,0.00,,---,0.28,VWS V13.01,2013-05-31 19:55:00,
2013-05-31 15:56:00,82.5,76.1,29.98,NE,45,7.8,7.8,81,0.00,,---,0.28,VWS V13.01,2013-05-31 19:56:00,
2013-05-31 15:59:00,82.4,76.0,29.98,NE,45,4.6,4.6,81,0.00,,---,0.28,VWS V13.01,2013-05-31 19:59:00,
2013-05-31 16:00:00,82.4,76.0,29.98,East,90,5.3,5.3,81,0.00,,---,0.28,VWS V13.01,2013-05-31 20:00:00,
2013-05-31 16:01:00,82.2,75.8,29.98,ENE,68,0.8,0.8,81,0.00,,---,0.28,VWS V13.01,2013-05-31 20:01:00,
2013-05-31 16:04:00,82.2,75.8,29.98,ENE,68,4.6,4.6,81,0.00,,---,0.28,VWS V13.01,2013-05-31 20:04:00,
2013-05-31 16:05:00,82.2,75.8,29.98,NE,45,0.0,0.0,81,0.00,,---,0.28,VWS V13.01,2013-05-31 20:05:00,
2013-05-31 16:06:00,82.2,75.8,29.98,NE,45,0.0,0.0,81,0.00,,---,0.28,VWS V13.01,2013-05-31 20:06:00,
2013-05-31 16:07:00,82.2,75.8,29.98,ESE,112,4.2,4.2,81,0.00,,---,0.28,VWS V13.01,2013-05-31 20:07:00,
2013-05-31 16:09:00,82.2,75.8,29.99,SE,135,5.5,5.5,81,0.00,,---,0.28,VWS V13.01,2013-05-31 20:09:00,
2013-05-31 16:10:00,82.2,75.8,29.98,East,90,2.9,2.9,81,0.00,,---,0.28,VWS V13.01,2013-05-31 20:10:00,
2013-05-31 16:11:00,82.2,75.8,29.98,East,90,2.9,2.9,81,0.00,,---,0.28,VWS V13.01,2013-05-31 20:11:00,
2013-05-31 16:12:00,82.2,75.8,29.99,East,90,3.1,3.1,81,0.00,,---,0.28,VWS V13.01,2013-05-31 20:12:00,
2013-05-31 16:14:00,82.0,75.6,29.99,NE,45,2.0,2.0,81,0.00,,---,0.28,VWS V13.01,2013-05-31 20:14:00,
2013-05-31 16:15:00,82.0,75.6,29.98,ESE,112,0.0,2.0,81,0.00,,---,0.28,VWS V13.01,2013-05-31 20:15:00,
2013-05-31 16:16:00,82.0,75.6,29.98,East,90,5.5,5.5,81,0.00,,---,0.28,VWS V13.01,2013-05-31 20:16:00,
2013-05-31 16:17:00,82.0,75.6,29.98,South,180,0.0,5.5,81,0.00,,---,0.28,VWS V13.01,2013-05-31 20:17:00,
2013-05-31 16:19:00,82.0,76.0,29.98,South,180,0.0,0.0,82,0.00,,---,0.28,VWS V13.01,2013-05-31 20:19:00,
2013-05-31 16:20:00,81.8,75.8,29.98,East,90,0.6,0.6,82,0.00,,---,0.28,VWS V13.01,2013-05-31 20:20:00,
2013-05-31 16:21:00,81.6,75.6,29.98,ENE,68,1.5,1.5,82,0.00,,---,0.28,VWS V13.01,2013-05-31 20:21:00,
2013-05-31 16:22:00,81.6,75.6,29.98,SSW,202,9.6,9.6,82,0.00,,---,0.28,VWS V13.01,2013-05-31 20:22:00,
2013-05-31 16:24:00,81.6,75.2,29.98,SE,135,2.9,2.9,81,0.00,,---,0.28,VWS V13.01,2013-05-31 20:24:00,
2013-05-31 16:25:00,81.6,75.2,29.98,ENE,68,9.3,9.3,81,0.00,,---,0.28,VWS V13.01,2013-05-31 20:25:00,
2013-05-31 16:26:00,81.6,75.2,29.98,East,90,1.3,1.3,81,0.00,,---,0.28,VWS V13.01,2013-05-31 20:26:00,
2013-05-31 16:27:00,81.5,75.1,29.98,SE,135,3.8,3.8,81,0.00,,---,0.28,VWS V13.01,2013-05-31 20:27:00,
2013-05-31 16:29:00,81.3,74.9,29.99,ESE,112,4.9,4.9,81,0.02,,---,0.30,VWS V13.01,2013-05-31 20:29:00,
2013-05-31 16:30:00,81.3,74.5,29.99,East,90,7.6,7.6,80,0.02,,---,0.30,VWS V13.01,2013-05-31 20:30:00,
2013-05-31 16:31:00,81.3,74.5,29.99,East,90,7.6,7.6,80,0.02,,---,0.30,VWS V13.01,2013-05-31 20:31:00,
2013-05-31 16:32:00,81.1,74.7,29.98,SE,135,0.8,0.8,81,0.04,,---,0.32,VWS V13.01,2013-05-31 20:32:00,
2013-05-31 16:34:00,80.9,74.5,29.98,East,90,5.3,5.3,81,0.04,,---,0.32,VWS V13.01,2013-05-31 20:34:00,
2013-05-31 16:36:00,80.9,74.9,29.98,SSE,158,3.8,3.8,82,0.04,,---,0.32,VWS V13.01,2013-05-31 20:36:00,
2013-05-31 16:38:00,80.7,74.7,29.98,ENE,68,10.2,10.2,82,0.06,,---,0.35,VWS V13.01,2013-05-31 20:38:00,
2013-05-31 16:39:00,80.7,74.7,29.98,ESE,112,5.3,5.3,82,0.06,,---,0.35,VWS V13.01,2013-05-31 20:39:00,
2013-05-31 16:41:00,80.7,74.7,29.98,East,90,3.1,3.1,82,0.06,,---,0.35,VWS V13.01,2013-05-31 20:41:00,
2013-05-31 16:43:00,80.4,74.4,29.98,ENE,68,2.9,2.9,82,0.08,,---,0.37,VWS V13.01,2013-05-31 20:43:00,
2013-05-31 16:44:00,80.4,74.8,29.97,ENE,68,1.3,1.3,83,0.08,,---,0.37,VWS V13.01,2013-05-31 20:44:00,
2013-05-31 16:46:00,80.4,74.4,29.97,ENE,68,5.3,5.3,82,0.08,,---,0.37,VWS V13.01,2013-05-31 20:46:00,
2013-05-31 16:48:00,80.4,74.4,29.97,ESE,112,8.9,8.9,82,0.08,,---,0.37,VWS V13.01,2013-05-31 20:48:00,
2013-05-31 16:49:00,80.2,74.2,29.97,SE,135,4.2,4.2,82,0.08,,---,0.37,VWS V13.01,2013-05-31 20:49:00,
2013-05-31 16:51:00,80.0,73.7,29.98,East,90,2.6,2.6,81,0.10,,---,0.39,VWS V13.01,2013-05-31 20:51:00,
2013-05-31 16:53:00,79.8,73.4,29.98,ESE,112,0.0,0.0,81,0.10,,---,0.39,VWS V13.01,2013-05-31 20:53:00,
2013-05-31 16:55:00,79.8,73.4,29.98,SSE,158,0.8,0.8,81,0.10,,---,0.39,VWS V13.01,2013-05-31 20:55:00,
2013-05-31 16:56:00,79.8,73.4,29.98,SE,135,6.2,6.2,81,0.10,,---,0.39,VWS V13.01,2013-05-31 20:56:00,
2013-05-31 16:58:00,79.8,73.8,29.97,SE,135,3.8,3.8,82,0.10,,---,0.39,VWS V13.01,2013-05-31 20:58:00,
2013-05-31 17:00:00,79.8,73.8,29.97,ESE,112,2.0,2.0,82,0.10,,---,0.39,VWS V13.01,2013-05-31 21:00:00,
2013-05-31 17:01:00,79.8,73.8,29.97,SE,135,4.0,4.0,82,0.10,,---,0.39,VWS V13.01,2013-05-31 21:01:00,
2013-05-31 17:03:00,80.2,74.2,29.97,SE,135,3.8,3.8,82,0.10,,---,0.39,VWS V13.01,2013-05-31 21:03:00,
2013-05-31 17:05:00,80.0,74.0,29.97,SE,135,0.0,0.0,82,0.10,,---,0.39,VWS V13.01,2013-05-31 21:05:00,
2013-05-31 17:06:00,80.2,74.6,29.97,SE,135,0.0,0.0,83,0.10,,---,0.39,VWS V13.01,2013-05-31 21:06:00,
2013-05-31 17:08:00,80.2,74.6,29.97,SSE,158,2.0,2.0,83,0.10,,---,0.39,VWS V13.01,2013-05-31 21:08:00,
2013-05-31 17:10:00,80.2,74.6,29.97,ESE,112,1.1,1.1,83,0.10,,---,0.39,VWS V13.01,2013-05-31 21:10:00,
2013-05-31 17:11:00,80.2,74.6,29.97,SE,135,4.0,4.0,83,0.10,,---,0.39,VWS V13.01,2013-05-31 21:11:00,
2013-05-31 17:13:00,80.4,75.1,29.97,SE,135,5.3,5.3,84,0.10,,---,0.39,VWS V13.01,2013-05-31 21:13:00,
2013-05-31 17:15:00,80.4,75.1,29.97,ESE,112,4.4,4.4,84,0.10,,---,0.39,VWS V13.01,2013-05-31 21:15:00,
2013-05-31 17:16:00,80.4,75.1,29.97,ESE,112,4.4,4.4,84,0.10,,---,0.39,VWS V13.01,2013-05-31 21:16:00,
2013-05-31 17:18:00,80.6,75.3,29.98,NNW,338,1.1,1.1,84,0.10,,---,0.39,VWS V13.01,2013-05-31 21:18:00,
2013-05-31 17:20:00,80.6,75.3,29.97,ENE,68,0.0,0.0,84,0.10,,---,0.39,VWS V13.01,2013-05-31 21:20:00,
2013-05-31 17:21:00,80.4,75.1,29.98,SE,135,1.1,1.1,84,0.10,,---,0.39,VWS V13.01,2013-05-31 21:21:00,
2013-05-31 17:22:00,80.4,75.1,29.98,SE,135,1.1,1.1,84,0.10,,---,0.39,VWS V13.01,2013-05-31 21:22:00,
2013-05-31 17:23:00,80.4,75.1,29.97,SE,135,0.0,0.0,84,0.10,,---,0.39,VWS V13.01,2013-05-31 21:23:00,
2013-05-31 17:25:00,80.6,75.3,29.97,ESE,112,1.3,3.8,84,0.10,,---,0.39,VWS V13.01,2013-05-31 21:25:00,
2013-05-31 17:26:00,80.4,75.1,29.97,SE,135,3.8,3.8,84,0.10,,---,0.39,VWS V13.01,2013-05-31 21:26:00,
2013-05-31 17:27:00,80.4,75.1,29.97,SE,135,3.8,3.8,84,0.10,,---,0.39,VWS V13.01,2013-05-31 21:27:00,
2013-05-31 17:28:00,80.4,75.1,29.97,SE,135,5.3,5.3,84,0.12,,---,0.45,VWS V13.01,2013-05-31 21:28:00,
2013-05-31 17:30:00,80.4,75.5,29.98,ESE,112,5.1,5.1,85,0.14,,---,0.47,VWS V13.01,2013-05-31 21:30:00,
2013-05-31 17:31:00,80.0,75.1,29.98,SE,135,4.0,4.0,85,0.16,,---,0.49,VWS V13.01,2013-05-31 21:31:00,
2013-05-31 17:32:00,80.0,75.1,29.98,SE,135,4.0,4.0,85,0.16,,---,0.49,VWS V13.01,2013-05-31 21:32:00,
2013-05-31 17:33:00,79.8,74.9,29.98,East,90,0.6,0.6,85,0.16,,---,0.49,VWS V13.01,2013-05-31 21:33:00,
2013-05-31 17:35:00,79.5,74.6,29.98,ESE,112,1.5,1.5,85,0.14,,---,0.49,VWS V13.01,2013-05-31 21:35:00,
2013-05-31 17:36:00,79.5,74.6,29.97,ENE,68,4.2,4.2,85,0.14,,---,0.49,VWS V13.01,2013-05-31 21:36:00,
2013-05-31 17:37:00,79.5,74.6,29.97,ENE,68,6.9,6.9,85,0.14,,---,0.49,VWS V13.01,2013-05-31 21:37:00,
2013-05-31 17:38:00,79.5,74.9,29.97,ENE,68,6.4,6.4,86,0.12,,---,0.49,VWS V13.01,2013-05-31 21:38:00,
2013-05-31 17:40:00,79.3,74.8,29.98,ESE,112,1.7,1.7,86,0.12,,---,0.49,VWS V13.01,2013-05-31 21:40:00,
2013-05-31 17:41:00,79.3,74.8,29.97,East,90,3.5,3.5,86,0.14,,---,0.51,VWS V13.01,2013-05-31 21:41:00,
2013-05-31 17:42:00,79.3,74.8,29.98,ENE,68,3.1,3.1,86,0.14,,---,0.51,VWS V13.01,2013-05-31 21:42:00,
2013-05-31 17:43:00,79.3,74.8,29.98,ENE,68,2.2,2.2,86,0.14,,---,0.51,VWS V13.01,2013-05-31 21:43:00,
2013-05-31 17:45:00,79.3,74.8,29.98,ESE,112,0.0,0.0,86,0.14,,---,0.51,VWS V13.01,2013-05-31 21:45:00,
2013-05-31 17:46:00,79.3,74.8,29.98,SE,135,0.0,0.0,86,0.14,,---,0.51,VWS V13.01,2013-05-31 21:46:00,
2013-05-31 17:47:00,79.3,74.8,29.97,East,90,1.5,1.5,86,0.12,,---,0.51,VWS V13.01,2013-05-31 21:47:00,
2013-05-31 17:48:00,79.3,74.8,29.97,ESE,112,0.8,0.8,86,0.12,,---,0.51,VWS V13.01,2013-05-31 21:48:00,
2013-05-31 17:50:00,79.3,74.8,29.98,NE,45,7.6,7.6,86,0.12,,---,0.51,VWS V13.01,2013-05-31 21:50:00,
2013-05-31 17:51:00,79.3,74.8,29.98,East,90,3.8,3.8,86,0.12,,---,0.51,VWS V13.01,2013-05-31 21:51:00,
2013-05-31 17:52:00,79.3,74.8,29.98,East,90,0.8,0.8,86,0.12,,---,0.51,VWS V13.01,2013-05-31 21:52:00,
2013-05-31 17:53:00,79.3,75.1,29.98,East,90,0.0,0.0,87,0.12,,---,0.51,VWS V13.01,2013-05-31 21:53:00,
2013-05-31 17:55:00,79.5,75.3,29.98,East,90,0.0,0.0,87,0.12,,---,0.51,VWS V13.01,2013-05-31 21:55:00,
2013-05-31 17:56:00,79.5,75.3,29.98,East,90,3.5,3.5,87,0.12,,---,0.51,VWS V13.01,2013-05-31 21:56:00,
2013-05-31 17:57:00,79.5,75.3,29.98,East,90,0.0,0.0,87,0.12,,---,0.51,VWS V13.01,2013-05-31 21:57:00,
2013-05-31 17:58:00,79.5,75.3,29.98,East,90,0.0,0.0,87,0.12,,---,0.51,VWS V13.01,2013-05-31 21:58:00,
2013-05-31 18:00:00,79.5,75.3,29.98,ENE,68,0.8,0.8,87,0.12,,---,0.51,VWS V13.01,2013-05-31 22:00:00,
2013-05-31 18:02:00,79.5,75.3,29.98,ESE,112,0.0,0.0,87,0.12,,---,0.51,VWS V13.01,2013-05-31 22:02:00,
2013-05-31 18:04:00,79.7,75.5,29.98,ESE,112,0.0,0.0,87,0.12,,---,0.51,VWS V13.01,2013-05-31 22:04:00,
2013-05-31 18:05:00,79.8,75.6,29.98,ESE,112,0.0,0.0,87,0.12,,---,0.51,VWS V13.01,2013-05-31 22:05:00,
2013-05-31 18:07:00,79.8,75.6,29.98,ESE,112,0.0,0.0,87,0.12,,---,0.51,VWS V13.01,2013-05-31 22:07:00,
2013-05-31 18:09:00,79.8,75.6,29.98,SE,135,0.0,0.0,87,0.12,,---,0.51,VWS V13.01,2013-05-31 22:09:00,
2013-05-31 18:10:00,79.8,75.6,29.98,ESE,112,0.6,0.6,87,0.12,,---,0.51,VWS V13.01,2013-05-31 22:10:00,
2013-05-31 18:12:00,80.2,75.6,29.98,East,90,0.0,0.0,86,0.12,,---,0.51,VWS V13.01,2013-05-31 22:12:00,
2013-05-31 18:14:00,80.2,75.6,29.98,ENE,68,0.0,0.0,86,0.12,,---,0.51,VWS V13.01,2013-05-31 22:14:00,
2013-05-31 18:15:00,80.2,75.6,29.98,SSE,158,1.5,1.5,86,0.12,,---,0.51,VWS V13.01,2013-05-31 22:15:00,
2013-05-31 18:17:00,80.2,75.6,29.98,ENE,68,2.2,2.2,86,0.12,,---,0.51,VWS V13.01,2013-05-31 22:17:00,
2013-05-31 18:18:00,80.2,75.6,29.98,ENE,68,2.2,2.2,86,0.12,,---,0.51,VWS V13.01,2013-05-31 22:18:00,
2013-05-31 18:19:00,80.2,75.6,29.98,ENE,68,2.2,2.2,86,0.12,,---,0.51,VWS V13.01,2013-05-31 22:19:00,
2013-05-31 18:20:00,80.2,75.6,29.98,SE,135,1.7,1.7,86,0.12,,---,0.51,VWS V13.01,2013-05-31 22:20:00,
2013-05-31 18:22:00,80.2,75.6,29.98,East,90,4.9,4.9,86,0.12,,---,0.51,VWS V13.01,2013-05-31 22:22:00,
2013-05-31 18:23:00,80.2,75.6,29.98,East,90,4.9,4.9,86,0.12,,---,0.51,VWS V13.01,2013-05-31 22:23:00,
2013-05-31 18:24:00,80.4,75.8,29.98,ESE,112,3.3,3.3,86,0.10,,---,0.51,VWS V13.01,2013-05-31 22:24:00,
2013-05-31 18:25:00,80.4,75.8,29.98,East,90,4.4,4.4,86,0.10,,---,0.51,VWS V13.01,2013-05-31 22:25:00,
2013-05-31 18:27:00,80.4,75.8,29.98,ENE,68,1.3,1.3,86,0.04,,---,0.51,VWS V13.01,2013-05-31 22:27:00,
2013-05-31 18:28:00,80.4,75.8,29.98,SE,135,0.6,1.3,86,0.04,,---,0.51,VWS V13.01,2013-05-31 22:28:00,
2013-05-31 18:29:00,80.4,75.8,29.98,SE,135,0.0,0.0,86,0.04,,---,0.51,VWS V13.01,2013-05-31 22:29:00,
2013-05-31 18:30:00,80.4,75.8,29.98,ESE,112,6.0,6.0,86,0.02,,---,0.51,VWS V13.01,2013-05-31 22:30:00,
2013-05-31 18:32:00,80.4,75.5,29.98,SSE,158,3.5,3.5,85,0.02,,---,0.51,VWS V13.01,2013-05-31 22:32:00,
2013-05-31 18:33:00,80.4,75.5,29.98,East,90,2.6,2.6,85,0.02,,---,0.51,VWS V13.01,2013-05-31 22:33:00,
2013-05-31 18:34:00,80.4,75.5,29.98,ENE,68,3.8,3.8,85,0.02,,---,0.51,VWS V13.01,2013-05-31 22:34:00,
2013-05-31 18:35:00,80.4,75.5,29.98,ESE,112,2.0,2.0,85,0.02,,---,0.51,VWS V13.01,2013-05-31 22:35:00,
2013-05-31 18:37:00,80.4,75.5,29.98,ENE,68,0.0,0.0,85,0.02,,---,0.51,VWS V13.01,2013-05-31 22:37:00,
2013-05-31 18:38:00,80.4,75.5,29.98,East,90,4.0,4.0,85,0.02,,---,0.51,VWS V13.01,2013-05-31 22:38:00,
2013-05-31 18:39:00,80.4,75.5,29.98,SSE,158,0.0,0.0,85,0.00,,---,0.51,VWS V13.01,2013-05-31 22:39:00,
2013-05-31 18:40:00,80.4,75.5,29.98,East,90,0.0,0.0,85,0.00,,---,0.51,VWS V13.01,2013-05-31 22:40:00,
2013-05-31 18:42:00,80.4,75.5,29.98,SSE,158,2.0,2.0,85,0.00,,---,0.51,VWS V13.01,2013-05-31 22:42:00,
2013-05-31 18:43:00,80.4,75.5,29.98,ENE,68,1.3,1.3,85,0.00,,---,0.51,VWS V13.01,2013-05-31 22:43:00,
2013-05-31 18:44:00,80.4,75.5,29.98,NE,45,3.8,3.8,85,0.00,,---,0.51,VWS V13.01,2013-05-31 22:44:00,
2013-05-31 18:45:00,80.4,75.5,29.98,East,90,2.4,2.4,85,0.00,,---,0.51,VWS V13.01,2013-05-31 22:45:00,
2013-05-31 18:47:00,80.4,75.5,29.99,ESE,112,1.3,1.3,85,0.00,,---,0.51,VWS V13.01,2013-05-31 22:47:00,
2013-05-31 18:48:00,80.2,75.3,29.99,East,90,0.0,0.0,85,0.00,,---,0.51,VWS V13.01,2013-05-31 22:48:00,
2013-05-31 18:49:00,80.4,75.5,29.99,ENE,68,5.5,5.5,85,0.00,,---,0.51,VWS V13.01,2013-05-31 22:49:00,
2013-05-31 18:50:00,80.4,75.5,29.99,SE,135,1.5,1.5,85,0.00,,---,0.51,VWS V13.01,2013-05-31 22:50:00,
2013-05-31 18:52:00,80.2,75.3,29.99,SE,135,0.8,0.8,85,0.00,,---,0.51,VWS V13.01,2013-05-31 22:52:00,
2013-05-31 18:53:00,80.2,75.3,29.99,ENE,68,4.6,4.6,85,0.00,,---,0.51,VWS V13.01,2013-05-31 22:53:00,
2013-05-31 18:54:00,80.2,75.3,29.99,ENE,68,4.0,4.0,85,0.00,,---,0.51,VWS V13.01,2013-05-31 22:54:00,
2013-05-31 18:56:00,80.2,75.3,29.99,ESE,112,3.5,3.5,85,0.00,,---,0.51,VWS V13.01,2013-05-31 22:56:00,
2013-05-31 18:57:00,80.2,75.3,29.99,ESE,112,2.2,2.2,85,0.00,,---,0.51,VWS V13.01,2013-05-31 22:57:00,
2013-05-31 18:58:00,80.2,75.3,29.99,ENE,68,1.3,1.3,85,0.00,,---,0.51,VWS V13.01,2013-05-31 22:58:00,
2013-05-31 18:59:00,80.2,75.3,29.99,ENE,68,3.3,3.3,85,0.00,,---,0.51,VWS V13.01,2013-05-31 22:59:00,
2013-05-31 19:01:00,80.2,75.3,29.99,ENE,68,0.0,0.0,85,0.00,,---,0.51,VWS V13.01,2013-05-31 23:01:00,
2013-05-31 19:02:00,80.2,75.3,29.99,SSE,158,2.4,2.4,85,0.00,,---,0.51,VWS V13.01,2013-05-31 23:02:00,
2013-05-31 19:03:00,80.0,75.1,29.99,ENE,68,2.0,2.0,85,0.00,,---,0.51,VWS V13.01,2013-05-31 23:03:00,
2013-05-31 19:04:00,80.0,75.1,29.99,ESE,112,2.4,2.4,85,0.00,,---,0.51,VWS V13.01,2013-05-31 23:04:00,
2013-05-31 19:06:00,80.0,75.1,29.99,SE,135,0.0,0.0,85,0.00,,---,0.51,VWS V13.01,2013-05-31 23:06:00,
2013-05-31 19:07:00,80.0,75.1,29.99,East,90,1.3,1.3,85,0.00,,---,0.51,VWS V13.01,2013-05-31 23:07:00,
2013-05-31 19:08:00,79.8,74.9,29.99,ENE,68,0.0,0.0,85,0.00,,---,0.51,VWS V13.01,2013-05-31 23:08:00,
2013-05-31 19:09:00,79.8,74.9,29.99,East,90,2.4,2.4,85,0.00,,---,0.51,VWS V13.01,2013-05-31 23:09:00,
2013-05-31 19:11:00,79.8,74.9,29.99,ESE,112,0.0,0.0,85,0.00,,---,0.51,VWS V13.01,2013-05-31 23:11:00,
2013-05-31 19:12:00,79.8,74.9,29.99,ESE,112,1.3,1.3,85,0.00,,---,0.51,VWS V13.01,2013-05-31 23:12:00,
2013-05-31 19:13:00,79.8,74.9,29.99,ESE,112,1.5,1.5,85,0.00,,---,0.51,VWS V13.01,2013-05-31 23:13:00,
2013-05-31 19:14:00,79.8,74.9,29.99,SE,135,2.2,2.2,85,0.00,,---,0.51,VWS V13.01,2013-05-31 23:14:00,
2013-05-31 19:16:00,79.8,74.9,30.00,East,90,4.0,4.0,85,0.00,,---,0.51,VWS V13.01,2013-05-31 23:16:00,
2013-05-31 19:17:00,79.8,74.9,30.00,SE,135,1.5,1.5,85,0.00,,---,0.51,VWS V13.01,2013-05-31 23:17:00,
2013-05-31 19:18:00,79.8,74.9,30.00,East,90,0.0,0.0,85,0.00,,---,0.51,VWS V13.01,2013-05-31 23:18:00,
2013-05-31 19:19:00,79.8,74.9,30.00,ENE,68,1.3,1.3,85,0.00,,---,0.51,VWS V13.01,2013-05-31 23:19:00,
2013-05-31 19:21:00,79.8,74.9,30.00,East,90,2.0,2.0,85,0.00,,---,0.51,VWS V13.01,2013-05-31 23:21:00,
2013-05-31 19:22:00,79.8,74.9,30.00,ESE,112,2.0,2.0,85,0.00,,---,0.51,VWS V13.01,2013-05-31 23:22:00,
2013-05-31 19:23:00,79.8,74.9,30.00,ESE,112,0.0,0.0,85,0.00,,---,0.51,VWS V13.01,2013-05-31 23:23:00,
2013-05-31 19:24:00,79.8,74.9,30.00,East,90,2.0,2.0,85,0.00,,---,0.51,VWS V13.01,2013-05-31 23:24:00,
2013-05-31 19:26:00,79.8,74.9,30.00,ENE,68,0.0,0.0,85,0.00,,---,0.51,VWS V13.01,2013-05-31 23:26:00,
2013-05-31 19:28:00,79.8,74.9,30.00,ENE,68,2.9,2.9,85,0.00,,---,0.51,VWS V13.01,2013-05-31 23:28:00,
2013-05-31 19:29:00,79.8,74.9,30.00,SE,135,0.0,0.0,85,0.00,,---,0.51,VWS V13.01,2013-05-31 23:29:00,
2013-05-31 19:31:00,79.8,74.9,30.00,ENE,68,4.4,4.4,85,0.00,,---,0.51,VWS V13.01,2013-05-31 23:31:00,
2013-05-31 19:33:00,79.8,74.9,30.00,East,90,1.3,1.3,85,0.00,,---,0.51,VWS V13.01,2013-05-31 23:33:00,
2013-05-31 19:34:00,79.7,74.8,30.00,SE,135,0.0,0.0,85,0.00,,---,0.51,VWS V13.01,2013-05-31 23:34:00,
2013-05-31 19:36:00,79.7,74.8,30.00,East,90,3.1,3.1,85,0.00,,---,0.51,VWS V13.01,2013-05-31 23:36:00,
2013-05-31 19:38:00,79.7,74.8,30.00,SE,135,2.2,2.2,85,0.00,,---,0.51,VWS V13.01,2013-05-31 23:38:00,
2013-05-31 19:39:00,79.7,74.8,30.00,ENE,68,1.3,1.3,85,0.00,,---,0.51,VWS V13.01,2013-05-31 23:39:00,
2013-05-31 19:41:00,79.7,74.8,30.00,ESE,112,1.7,1.7,85,0.00,,---,0.51,VWS V13.01,2013-05-31 23:41:00,
2013-05-31 19:43:00,79.7,74.8,30.00,East,90,7.3,7.3,85,0.00,,---,0.51,VWS V13.01,2013-05-31 23:43:00,
2013-05-31 19:44:00,79.8,74.9,30.00,NNE,22,5.8,5.8,85,0.00,,---,0.51,VWS V13.01,2013-05-31 23:44:00,
2013-05-31 19:46:00,79.7,74.8,30.00,East,90,4.4,4.4,85,0.00,,---,0.51,VWS V13.01,2013-05-31 23:46:00,
2013-05-31 19:48:00,79.7,74.8,30.00,NE,45,2.0,2.0,85,0.00,,---,0.51,VWS V13.01,2013-05-31 23:48:00,
2013-05-31 19:49:00,79.7,74.8,30.00,East,90,2.4,2.4,85,0.00,,---,0.51,VWS V13.01,2013-05-31 23:49:00,
2013-05-31 19:51:00,79.7,74.8,30.00,SSE,158,2.9,2.9,85,0.00,,---,0.51,VWS V13.01,2013-05-31 23:51:00,
2013-05-31 19:53:00,79.7,74.8,30.00,East,90,3.8,3.8,85,0.00,,---,0.51,VWS V13.01,2013-05-31 23:53:00,
2013-05-31 19:54:00,79.7,74.8,30.00,East,90,3.8,3.8,85,0.00,,---,0.51,VWS V13.01,2013-05-31 23:54:00,
2013-05-31 19:56:00,79.7,74.8,30.00,ENE,68,1.5,1.5,85,0.00,,---,0.51,VWS V13.01,2013-05-31 23:56:00,
2013-05-31 19:58:00,79.7,74.8,30.00,East,90,0.0,0.0,85,0.00,,---,0.51,VWS V13.01,2013-05-31 23:58:00,
2013-05-31 19:59:00,79.7,74.8,30.00,ESE,112,2.0,2.0,85,0.00,,---,0.51,VWS V13.01,2013-05-31 23:59:00,
2013-05-31 20:01:00,79.7,74.8,30.00,SE,135,3.3,3.3,85,0.00,,---,0.51,VWS V13.01,2013-06-01 00:01:00,
2013-05-31 20:03:00,79.7,74.8,30.00,East,90,3.5,3.5,85,0.00,,---,0.51,VWS V13.01,2013-06-01 00:03:00,
2013-05-31 20:04:00,79.7,74.8,30.00,SE,135,0.0,0.0,85,0.00,,---,0.51,VWS V13.01,2013-06-01 00:04:00,
2013-05-31 20:06:00,79.7,74.8,30.00,ENE,68,4.4,4.4,85,0.00,,---,0.51,VWS V13.01,2013-06-01 00:06:00,
2013-05-31 20:08:00,79.5,74.6,30.00,SSE,158,0.0,0.0,85,0.00,,---,0.51,VWS V13.01,2013-06-01 00:08:00,
2013-05-31 20:09:00,79.7,74.8,30.00,NE,45,0.0,0.0,85,0.00,,---,0.51,VWS V13.01,2013-06-01 00:09:00,
2013-05-31 20:10:00,79.7,74.8,30.00,NE,45,0.0,0.0,85,0.00,,---,0.51,VWS V13.01,2013-06-01 00:10:00,
2013-05-31 20:11:00,79.5,74.6,30.00,ESE,112,2.6,2.6,85,0.00,,---,0.51,VWS V13.01,2013-06-01 00:11:00,
2013-05-31 20:13:00,79.7,74.8,30.01,East,90,1.5,1.5,85,0.00,,---,0.51,VWS V13.01,2013-06-01 00:13:00,
2013-05-31 20:14:00,79.5,74.6,30.01,SW,225,0.0,0.0,85,0.00,,---,0.51,VWS V13.01,2013-06-01 00:14:00,
2013-05-31 20:15:00,79.5,74.6,30.01,SE,135,0.0,0.0,85,0.00,,---,0.51,VWS V13.01,2013-06-01 00:15:00,
2013-05-31 20:16:00,79.5,74.6,30.01,SSE,158,7.1,7.1,85,0.00,,---,0.51,VWS V13.01,2013-06-01 00:16:00,
2013-05-31 20:18:00,79.5,74.6,30.01,East,90,5.3,5.3,85,0.00,,---,0.51,VWS V13.01,2013-06-01 00:18:00,
2013-05-31 20:19:00,79.5,74.6,30.01,East,90,5.3,5.3,85,0.00,,---,0.51,VWS V13.01,2013-06-01 00:19:00,
2013-05-31 20:20:00,79.5,74.6,30.01,NE,45,1.7,1.7,85,0.00,,---,0.51,VWS V13.01,2013-06-01 00:20:00,
2013-05-31 20:21:00,79.5,74.6,30.01,SE,135,2.9,2.9,85,0.00,,---,0.51,VWS V13.01,2013-06-01 00:21:00,
2013-05-31 20:23:00,79.5,74.6,30.01,East,90,4.2,4.2,85,0.00,,---,0.51,VWS V13.01,2013-06-01 00:23:00,
2013-05-31 20:24:00,79.5,74.6,30.01,East,90,4.2,4.2,85,0.00,,---,0.51,VWS V13.01,2013-06-01 00:24:00,
2013-05-31 20:25:00,79.7,74.8,30.01,SE,135,0.0,0.0,85,0.00,,---,0.51,VWS V13.01,2013-06-01 00:25:00,
2013-05-31 20:26:00,79.5,74.6,30.01,ESE,112,6.9,6.9,85,0.00,,---,0.51,VWS V13.01,2013-06-01 00:26:00,
2013-05-31 20:28:00,79.5,74.6,30.01,ENE,68,0.0,0.0,85,0.00,,---,0.51,VWS V13.01,2013-06-01 00:28:00,
2013-05-31 20:29:00,79.5,74.6,30.01,SE,135,2.0,2.0,85,0.00,,---,0.51,VWS V13.01,2013-06-01 00:29:00,
2013-05-31 20:30:00,79.5,74.6,30.01,SSE,158,3.5,3.5,85,0.00,,---,0.51,VWS V13.01,2013-06-01 00:30:00,
2013-05-31 20:31:00,79.5,74.6,30.01,ENE,68,0.0,0.0,85,0.00,,---,0.51,VWS V13.01,2013-06-01 00:31:00,
2013-05-31 20:33:00,79.5,74.6,30.01,ESE,112,4.2,4.2,85,0.00,,---,0.51,VWS V13.01,2013-06-01 00:33:00,
2013-05-31 20:34:00,79.5,74.6,30.02,North,0,0.0,0.0,85,0.00,,---,0.51,VWS V13.01,2013-06-01 00:34:00,
2013-05-31 20:35:00,79.5,74.6,30.02,ESE,112,0.0,0.0,85,0.00,,---,0.51,VWS V13.01,2013-06-01 00:35:00,
2013-05-31 20:36:00,79.5,74.6,30.01,SSE,158,0.0,0.0,85,0.00,,---,0.51,VWS V13.01,2013-06-01 00:36:00,
2013-05-31 20:38:00,79.5,74.6,30.02,SE,135,2.0,2.0,85,0.00,,---,0.51,VWS V13.01,2013-06-01 00:38:00,
2013-05-31 20:39:00,79.5,74.6,30.02,ESE,112,0.0,0.0,85,0.00,,---,0.51,VWS V13.01,2013-06-01 00:39:00,
2013-05-31 20:40:00,79.5,74.6,30.02,ESE,112,1.7,1.7,85,0.00,,---,0.51,VWS V13.01,2013-06-01 00:40:00,
2013-05-31 20:42:00,79.5,74.6,30.02,SSE,158,1.3,1.3,85,0.00,,---,0.51,VWS V13.01,2013-06-01 00:42:00,
2013-05-31 20:43:00,79.5,74.6,30.01,SE,135,6.2,6.2,85,0.00,,---,0.51,VWS V13.01,2013-06-01 00:43:00,
2013-05-31 20:44:00,79.5,74.6,30.02,ESE,112,0.0,0.0,85,0.00,,---,0.51,VWS V13.01,2013-06-01 00:44:00,
2013-05-31 20:45:00,79.5,74.6,30.02,SE,135,1.5,1.5,85,0.00,,---,0.51,VWS V13.01,2013-06-01 00:45:00,
2013-05-31 20:47:00,79.5,74.6,30.02,SE,135,2.2,2.2,85,0.00,,---,0.51,VWS V13.01,2013-06-01 00:47:00,
2013-05-31 20:48:00,79.5,74.6,30.02,SE,135,0.0,0.0,85,0.00,,---,0.51,VWS V13.01,2013-06-01 00:48:00,
2013-05-31 20:49:00,79.5,74.6,30.02,East,90,0.0,0.0,85,0.00,,---,0.51,VWS V13.01,2013-06-01 00:49:00,
2013-05-31 20:50:00,79.5,74.6,30.02,ESE,112,0.0,0.0,85,0.00,,---,0.51,VWS V13.01,2013-06-01 00:50:00,
2013-05-31 20:52:00,79.5,74.6,30.02,SE,135,2.9,2.9,85,0.00,,---,0.51,VWS V13.01,2013-06-01 00:52:00,
2013-05-31 20:54:00,79.5,74.6,30.02,ESE,112,2.4,2.4,85,0.00,,---,0.51,VWS V13.01,2013-06-01 00:54:00,
2013-05-31 20:55:00,79.5,74.6,30.02,ESE,112,2.4,2.4,85,0.00,,---,0.51,VWS V13.01,2013-06-01 00:55:00,
2013-05-31 20:57:00,79.5,74.6,30.02,East,90,1.1,1.1,85,0.00,,---,0.51,VWS V13.01,2013-06-01 00:57:00,
2013-05-31 20:59:00,79.5,74.6,30.02,SE,135,2.4,2.4,85,0.00,,---,0.51,VWS V13.01,2013-06-01 00:59:00,
2013-05-31 21:00:00,79.5,74.6,30.02,East,90,0.0,0.0,85,0.00,,---,0.51,VWS V13.01,2013-06-01 01:00:00,
2013-05-31 21:02:00,79.5,74.6,30.02,SE,135,0.0,0.0,85,0.00,,---,0.51,VWS V13.01,2013-06-01 01:02:00,
2013-05-31 21:04:00,79.5,74.6,30.02,ENE,68,0.0,0.0,85,0.00,,---,0.51,VWS V13.01,2013-06-01 01:04:00,
2013-05-31 21:05:00,79.5,74.6,30.02,SE,135,2.4,2.4,85,0.00,,---,0.51,VWS V13.01,2013-06-01 01:05:00,
2013-05-31 21:07:00,79.5,74.6,30.02,ENE,68,2.4,2.4,85,0.00,,---,0.51,VWS V13.01,2013-06-01 01:07:00,
2013-05-31 21:09:00,79.3,74.4,30.03,ESE,112,0.0,2.4,85,0.00,,---,0.51,VWS V13.01,2013-06-01 01:09:00,
2013-05-31 21:10:00,79.3,74.4,30.03,ESE,112,0.0,0.0,85,0.00,,---,0.51,VWS V13.01,2013-06-01 01:10:00,
2013-05-31 21:12:00,79.3,74.4,30.03,East,90,2.0,2.0,85,0.00,,---,0.51,VWS V13.01,2013-06-01 01:12:00,
2013-05-31 21:14:00,79.3,74.4,30.03,ESE,112,0.0,0.0,85,0.00,,---,0.51,VWS V13.01,2013-06-01 01:14:00,
2013-05-31 21:15:00,79.3,74.4,30.03,ESE,112,0.0,0.0,85,0.00,,---,0.51,VWS V13.01,2013-06-01 01:15:00,
2013-05-31 21:16:00,79.3,74.4,30.03,ESE,112,2.4,2.4,85,0.00,,---,0.51,VWS V13.01,2013-06-01 01:16:00,
2013-05-31 21:17:00,79.3,74.4,30.03,SE,135,0.0,0.0,85,0.00,,---,0.51,VWS V13.01,2013-06-01 01:17:00,
2013-05-31 21:19:00,79.3,74.4,30.02,ENE,68,0.0,0.0,85,0.00,,---,0.51,VWS V13.01,2013-06-01 01:19:00,
2013-05-31 21:20:00,79.3,74.4,30.02,SE,135,0.0,0.0,85,0.00,,---,0.51,VWS V13.01,2013-06-01 01:20:00,
2013-05-31 21:21:00,79.3,74.4,30.02,SE,135,0.0,0.0,85,0.00,,---,0.51,VWS V13.01,2013-06-01 01:21:00,
2013-05-31 21:22:00,79.3,74.4,30.02,SE,135,0.0,0.0,85,0.00,,---,0.51,VWS V13.01,2013-06-01 01:22:00,
2013-05-31 21:24:00,79.3,74.4,30.02,ESE,112,0.0,0.0,85,0.00,,---,0.51,VWS V13.01,2013-06-01 01:24:00,
2013-05-31 21:25:00,79.3,74.4,30.02,SE,135,4.0,4.0,85,0.00,,---,0.51,VWS V13.01,2013-06-01 01:25:00,
2013-05-31 21:26:00,79.3,74.4,30.02,SE,135,4.0,4.0,85,0.00,,---,0.51,VWS V13.01,2013-06-01 01:26:00,
2013-05-31 21:27:00,79.3,74.4,30.02,SE,135,6.4,6.4,85,0.00,,---,0.51,VWS V13.01,2013-06-01 01:27:00,
2013-05-31 21:29:00,79.3,74.4,30.02,ESE,112,2.4,2.4,85,0.00,,---,0.51,VWS V13.01,2013-06-01 01:29:00,
2013-05-31 21:30:00,79.3,74.4,30.02,ENE,68,5.1,5.1,85,0.00,,---,0.51,VWS V13.01,2013-06-01 01:30:00,
2013-05-31 21:31:00,79.3,74.4,30.03,SE,135,0.0,5.1,85,0.00,,---,0.51,VWS V13.01,2013-06-01 01:31:00,
2013-05-31 21:32:00,79.3,74.4,30.03,ESE,112,0.0,0.0,85,0.00,,---,0.51,VWS V13.01,2013-06-01 01:32:00,
2013-05-31 21:34:00,79.3,74.4,30.03,ESE,112,6.2,6.2,85,0.00,,---,0.51,VWS V13.01,2013-06-01 01:34:00,
2013-05-31 21:35:00,79.3,74.4,30.03,ENE,68,0.0,0.0,85,0.00,,---,0.51,VWS V13.01,2013-06-01 01:35:00,
2013-05-31 21:36:00,79.3,74.4,30.03,ENE,68,0.0,0.0,85,0.00,,---,0.51,VWS V13.01,2013-06-01 01:36:00,
2013-05-31 21:37:00,79.3,74.4,30.03,ENE,68,0.0,0.0,85,0.00,,---,0.51,VWS V13.01,2013-06-01 01:37:00,
2013-05-31 21:39:00,79.3,74.4,30.03,East,90,2.2,2.2,85,0.00,,---,0.51,VWS V13.01,2013-06-01 01:39:00,
2013-05-31 21:40:00,79.3,74.4,30.03,ENE,68,0.0,0.0,85,0.00,,---,0.51,VWS V13.01,2013-06-01 01:40:00,
2013-05-31 21:41:00,79.3,74.4,30.03,ESE,112,0.0,0.0,85,0.00,,---,0.51,VWS V13.01,2013-06-01 01:41:00,
2013-05-31 21:42:00,79.3,74.4,30.03,ENE,68,2.0,2.0,85,0.00,,---,0.51,VWS V13.01,2013-06-01 01:42:00,
2013-05-31 21:44:00,79.3,74.4,30.03,ESE,112,3.5,3.5,85,0.00,,---,0.51,VWS V13.01,2013-06-01 01:44:00,
2013-05-31 21:45:00,79.3,74.4,30.03,ESE,112,0.0,0.0,85,0.00,,---,0.51,VWS V13.01,2013-06-01 01:45:00,
2013-05-31 21:46:00,79.3,74.4,30.03,NE,45,8.2,8.2,85,0.00,,---,0.51,VWS V13.01,2013-06-01 01:46:00,
2013-05-31 21:47:00,79.3,74.1,30.03,SE,135,6.4,6.4,84,0.00,,---,0.51,VWS V13.01,2013-06-01 01:47:00,
2013-05-31 21:49:00,79.3,74.1,30.03,SSE,158,0.0,0.0,84,0.00,,---,0.51,VWS V13.01,2013-06-01 01:49:00,
2013-05-31 21:50:00,79.3,74.1,30.03,SE,135,0.0,0.0,84,0.00,,---,0.51,VWS V13.01,2013-06-01 01:50:00,
2013-05-31 21:51:00,79.3,74.1,30.03,ESE,112,2.2,2.2,84,0.00,,---,0.51,VWS V13.01,2013-06-01 01:51:00,
2013-05-31 21:52:00,79.3,74.1,30.04,SE,135,4.6,4.6,84,0.00,,---,0.51,VWS V13.01,2013-06-01 01:52:00,
2013-05-31 21:54:00,79.3,74.1,30.03,ENE,68,4.2,4.2,84,0.00,,---,0.51,VWS V13.01,2013-06-01 01:54:00,
2013-05-31 21:55:00,79.3,74.1,30.03,SE,135,0.8,0.8,84,0.00,,---,0.51,VWS V13.01,2013-06-01 01:55:00,
2013-05-31 21:56:00,79.3,74.1,30.03,SE,135,0.8,0.8,84,0.00,,---,0.51,VWS V13.01,2013-06-01 01:56:00,
2013-05-31 21:57:00,79.3,74.1,30.04,ENE,68,0.0,0.0,84,0.00,,---,0.51,VWS V13.01,2013-06-01 01:57:00,
2013-05-31 22:00:00,79.3,74.1,30.04,ESE,112,0.0,0.0,84,0.00,,---,0.51,VWS V13.01,2013-06-01 02:00:00,
2013-05-31 22:01:00,79.3,74.1,30.03,ESE,112,2.2,2.2,84,0.00,,---,0.51,VWS V13.01,2013-06-01 02:01:00,
2013-05-31 22:02:00,79.3,74.1,30.04,ENE,68,0.0,0.0,84,0.00,,---,0.51,VWS V13.01,2013-06-01 02:02:00,
2013-05-31 22:05:00,79.3,74.1,30.04,East,90,0.0,0.0,84,0.00,,---,0.51,VWS V13.01,2013-06-01 02:05:00,
2013-05-31 22:06:00,79.3,74.1,30.04,East,90,0.0,0.0,84,0.00,,---,0.51,VWS V13.01,2013-06-01 02:06:00,
2013-05-31 22:07:00,79.3,74.1,30.03,NE,45,4.4,4.4,84,0.00,,---,0.51,VWS V13.01,2013-06-01 02:07:00,
2013-05-31 22:10:00,79.3,74.1,30.03,ESE,112,0.0,0.0,84,0.00,,---,0.51,VWS V13.01,2013-06-01 02:10:00,
2013-05-31 22:11:00,79.3,74.1,30.04,ESE,112,2.4,2.4,84,0.00,,---,0.51,VWS V13.01,2013-06-01 02:11:00,
2013-05-31 22:12:00,79.3,74.1,30.04,East,90,4.0,4.0,84,0.00,,---,0.51,VWS V13.01,2013-06-01 02:12:00,
2013-05-31 22:15:00,79.3,74.1,30.04,NNE,22,2.6,2.6,84,0.00,,---,0.51,VWS V13.01,2013-06-01 02:15:00,
2013-05-31 22:16:00,79.3,74.1,30.04,East,90,1.5,1.5,84,0.00,,---,0.51,VWS V13.01,2013-06-01 02:16:00,
2013-05-31 22:17:00,79.3,74.1,30.04,NE,45,1.5,1.5,84,0.00,,---,0.51,VWS V13.01,2013-06-01 02:17:00,
2013-05-31 22:18:00,79.3,74.1,30.04,NE,45,1.5,1.5,84,0.00,,---,0.51,VWS V13.01,2013-06-01 02:18:00,
2013-05-31 22:20:00,79.3,74.4,30.04,ENE,68,0.0,0.0,85,0.00,,---,0.51,VWS V13.01,2013-06-01 02:20:00,
2013-05-31 22:21:00,79.3,74.4,30.03,ENE,68,2.4,2.4,85,0.00,,---,0.51,VWS V13.01,2013-06-01 02:21:00,
2013-05-31 22:22:00,79.3,74.4,30.03,ESE,112,2.2,2.2,85,0.00,,---,0.51,VWS V13.01,2013-06-01 02:22:00,
2013-05-31 22:23:00,79.3,74.4,30.03,ESE,112,2.2,2.2,85,0.00,,---,0.51,VWS V13.01,2013-06-01 02:23:00,
2013-05-31 22:25:00,79.3,74.4,30.03,ESE,112,0.0,0.0,85,0.00,,---,0.51,VWS V13.01,2013-06-01 02:25:00,
2013-05-31 22:26:00,79.3,74.4,30.03,ESE,112,0.0,0.0,85,0.00,,---,0.51,VWS V13.01,2013-06-01 02:26:00,
2013-05-31 22:27:00,79.3,74.4,30.03,ESE,112,2.4,2.4,85,0.00,,---,0.51,VWS V13.01,2013-06-01 02:27:00,
2013-05-31 22:28:00,79.3,74.4,30.03,ENE,68,2.4,2.4,85,0.00,,---,0.51,VWS V13.01,2013-06-01 02:28:00,
2013-05-31 22:30:00,79.3,74.4,30.03,NE,45,2.2,2.2,85,0.00,,---,0.51,VWS V13.01,2013-06-01 02:30:00,
2013-05-31 22:31:00,79.3,74.4,30.03,ESE,112,4.6,4.6,85,0.00,,---,0.51,VWS V13.01,2013-06-01 02:31:00,
2013-05-31 22:32:00,79.3,74.4,30.03,East,90,0.0,0.0,85,0.00,,---,0.51,VWS V13.01,2013-06-01 02:32:00,
2013-05-31 22:33:00,79.3,74.4,30.03,East,90,4.0,4.0,85,0.00,,---,0.51,VWS V13.01,2013-06-01 02:33:00,
2013-05-31 22:35:00,79.3,74.4,30.03,ESE,112,6.2,6.2,85,0.00,,---,0.51,VWS V13.01,2013-06-01 02:35:00,
2013-05-31 22:36:00,79.3,74.4,30.03,East,90,6.9,6.9,85,0.00,,---,0.51,VWS V13.01,2013-06-01 02:36:00,
2013-05-31 22:37:00,79.3,74.4,30.04,ENE,68,0.8,0.8,85,0.00,,---,0.51,VWS V13.01,2013-06-01 02:37:00,
2013-05-31 22:38:00,79.3,74.4,30.04,South,180,2.9,2.9,85,0.00,,---,0.51,VWS V13.01,2013-06-01 02:38:00,
2013-05-31 22:40:00,79.3,74.4,30.04,South,180,2.2,2.2,85,0.00,,---,0.51,VWS V13.01,2013-06-01 02:40:00,
2013-05-31 22:41:00,79.3,74.1,30.04,SSE,158,0.0,0.0,84,0.00,,---,0.51,VWS V13.01,2013-06-01 02:41:00,
2013-05-31 22:42:00,79.3,74.1,30.04,East,90,8.7,8.7,84,0.00,,---,0.51,VWS V13.01,2013-06-01 02:42:00,
2013-05-31 22:43:00,79.3,74.1,30.04,SE,135,2.0,2.0,84,0.00,,---,0.51,VWS V13.01,2013-06-01 02:43:00,
2013-05-31 22:45:00,79.3,74.4,30.04,ESE,112,4.0,4.0,85,0.00,,---,0.51,VWS V13.01,2013-06-01 02:45:00,
2013-05-31 22:46:00,79.3,74.4,30.04,SE,135,3.5,3.5,85,0.00,,---,0.51,VWS V13.01,2013-06-01 02:46:00,
2013-05-31 22:48:00,79.3,74.4,30.04,SE,135,1.3,1.3,85,0.00,,---,0.51,VWS V13.01,2013-06-01 02:48:00,
2013-05-31 22:50:00,79.3,74.4,30.04,SE,135,0.0,0.0,85,0.00,,---,0.51,VWS V13.01,2013-06-01 02:50:00,
2013-05-31 22:51:00,79.3,74.4,30.04,East,90,7.8,7.8,85,0.00,,---,0.51,VWS V13.01,2013-06-01 02:51:00,
2013-05-31 22:52:00,79.3,74.4,30.04,ESE,112,5.8,5.8,85,0.00,,---,0.51,VWS V13.01,2013-06-01 02:52:00,
2013-05-31 22:53:00,79.3,74.4,30.04,ESE,112,5.8,5.8,85,0.00,,---,0.51,VWS V13.01,2013-06-01 02:53:00,
2013-05-31 22:55:00,79.3,74.4,30.03,ENE,68,4.6,4.6,85,0.00,,---,0.51,VWS V13.01,2013-06-01 02:55:00,
2013-05-31 22:56:00,79.3,74.4,30.03,South,180,0.0,0.0,85,0.00,,---,0.51,VWS V13.01,2013-06-01 02:56:00,
2013-05-31 22:57:00,79.3,74.4,30.04,ESE,112,0.0,0.0,85,0.00,,---,0.51,VWS V13.01,2013-06-01 02:57:00,
2013-05-31 22:58:00,79.3,74.4,30.04,ESE,112,0.0,0.0,85,0.00,,---,0.51,VWS V13.01,2013-06-01 02:58:00,
2013-05-31 23:01:00,79.1,73.8,30.04,East,90,0.0,0.0,84,0.00,,---,0.51,VWS V13.01,2013-06-01 03:01:00,
2013-05-31 23:02:00,79.1,73.8,30.04,East,90,0.0,0.0,84,0.00,,---,0.51,VWS V13.01,2013-06-01 03:02:00,
2013-05-31 23:03:00,79.1,73.8,30.04,SE,135,4.4,4.4,84,0.00,,---,0.51,VWS V13.01,2013-06-01 03:03:00,
2013-05-31 23:06:00,79.1,73.8,30.03,East,90,3.1,3.1,84,0.00,,---,0.51,VWS V13.01,2013-06-01 03:06:00,
2013-05-31 23:07:00,79.1,73.8,30.03,ESE,112,0.0,0.0,84,0.00,,---,0.51,VWS V13.01,2013-06-01 03:07:00,
2013-05-31 23:08:00,79.1,73.8,30.03,ESE,112,0.0,0.0,84,0.00,,---,0.51,VWS V13.01,2013-06-01 03:08:00,
2013-05-31 23:11:00,79.1,73.8,30.03,SE,135,4.2,4.2,84,0.00,,---,0.51,VWS V13.01,2013-06-01 03:11:00,
2013-05-31 23:12:00,79.1,73.8,30.03,ESE,112,4.2,4.2,84,0.00,,---,0.51,VWS V13.01,2013-06-01 03:12:00,
2013-05-31 23:13:00,78.9,73.7,30.04,SE,135,0.0,0.0,84,0.00,,---,0.51,VWS V13.01,2013-06-01 03:13:00,
2013-05-31 23:16:00,79.1,73.8,30.04,SSE,158,2.2,2.2,84,0.00,,---,0.51,VWS V13.01,2013-06-01 03:16:00,
2013-05-31 23:17:00,79.1,73.8,30.04,SSE,158,2.2,2.2,84,0.00,,---,0.51,VWS V13.01,2013-06-01 03:17:00,
2013-05-31 23:18:00,78.9,73.7,30.03,ESE,112,3.1,3.1,84,0.00,,---,0.51,VWS V13.01,2013-06-01 03:18:00,
2013-05-31 23:21:00,78.9,73.7,30.03,ENE,68,0.0,0.0,84,0.00,,---,0.51,VWS V13.01,2013-06-01 03:21:00,
2013-05-31 23:22:00,78.9,73.7,30.03,SE,135,0.0,0.0,84,0.00,,---,0.51,VWS V13.01,2013-06-01 03:22:00,
2013-05-31 23:23:00,78.9,73.7,30.03,SE,135,0.0,0.0,84,0.00,,---,0.51,VWS V13.01,2013-06-01 03:23:00,
2013-05-31 23:26:00,78.9,73.7,30.03,ESE,112,2.2,2.2,84,0.00,,---,0.51,VWS V13.01,2013-06-01 03:26:00,
2013-05-31 23:27:00,78.9,73.7,30.03,SE,135,8.0,8.0,84,0.00,,---,0.51,VWS V13.01,2013-06-01 03:27:00,
2013-05-31 23:28:00,78.9,73.7,30.03,SE,135,8.0,8.0,84,0.00,,---,0.51,VWS V13.01,2013-06-01 03:28:00,
2013-05-31 23:31:00,78.9,73.7,30.04,SE,135,0.8,0.8,84,0.00,,---,0.51,VWS V13.01,2013-06-01 03:31:00,
2013-05-31 23:32:00,78.9,73.7,30.03,SE,135,1.1,1.1,84,0.00,,---,0.51,VWS V13.01,2013-06-01 03:32:00,
2013-05-31 23:33:00,78.9,73.7,30.03,SE,135,1.1,1.1,84,0.00,,---,0.51,VWS V13.01,2013-06-01 03:33:00,
2013-05-31 23:34:00,78.9,73.7,30.03,SE,135,1.3,1.3,84,0.00,,---,0.51,VWS V13.01,2013-06-01 03:34:00,
2013-05-31 23:36:00,78.9,73.7,30.03,SE,135,4.6,4.6,84,0.00,,---,0.51,VWS V13.01,2013-06-01 03:36:00,
2013-05-31 23:37:00,78.9,73.7,30.03,East,90,5.8,5.8,84,0.00,,---,0.51,VWS V13.01,2013-06-01 03:37:00,
2013-05-31 23:38:00,78.9,73.7,30.04,SE,135,0.0,5.8,84,0.00,,---,0.51,VWS V13.01,2013-06-01 03:38:00,
2013-05-31 23:39:00,78.9,73.7,30.04,SE,135,0.0,0.0,84,0.00,,---,0.51,VWS V13.01,2013-06-01 03:39:00,
2013-05-31 23:41:00,78.9,73.7,30.03,ENE,68,0.0,0.0,84,0.00,,---,0.51,VWS V13.01,2013-06-01 03:41:00,
2013-05-31 23:42:00,78.9,73.7,30.03,ESE,112,0.0,0.0,84,0.00,,---,0.51,VWS V13.01,2013-06-01 03:42:00,
2013-05-31 23:43:00,78.9,73.7,30.03,East,90,0.0,0.0,84,0.00,,---,0.51,VWS V13.01,2013-06-01 03:43:00,
2013-05-31 23:44:00,78.9,73.7,30.03,East,90,0.0,0.0,84,0.00,,---,0.51,VWS V13.01,2013-06-01 03:44:00,
2013-05-31 23:46:00,78.9,73.7,30.03,SE,135,0.0,0.0,84,0.00,,---,0.51,VWS V13.01,2013-06-01 03:46:00,
2013-05-31 23:47:00,78.8,73.6,30.03,East,90,1.1,1.1,84,0.00,,---,0.51,VWS V13.01,2013-06-01 03:47:00,
2013-05-31 23:48:00,78.8,73.6,30.03,ESE,112,1.5,1.5,84,0.00,,---,0.51,VWS V13.01,2013-06-01 03:48:00,
2013-05-31 23:49:00,78.8,73.6,30.03,ENE,68,2.2,2.2,84,0.00,,---,0.51,VWS V13.01,2013-06-01 03:49:00,
2013-05-31 23:52:00,78.8,73.6,30.04,ENE,68,1.5,1.5,84,0.00,,---,0.51,VWS V13.01,2013-06-01 03:52:00,
2013-05-31 23:53:00,78.8,73.6,30.04,SE,135,3.8,3.8,84,0.00,,---,0.51,VWS V13.01,2013-06-01 03:53:00,
2013-05-31 23:54:00,78.8,73.6,30.03,ESE,112,3.3,3.3,84,0.00,,---,0.51,VWS V13.01,2013-06-01 03:54:00,
2013-05-31 23:57:00,78.8,73.6,30.03,ESE,112,0.0,1.7,84,0.00,,---,0.00,VWS V13.01,2013-06-01 03:57:00,
2013-05-31 23:58:00,78.8,73.6,30.03,SE,135,0.0,0.0,84,0.00,,---,0.00,VWS V13.01,2013-06-01 03:58:00,
2013-05-31 23:59:00,78.8,73.6,30.03,SE,135,0.0,0.0,84,0.00,,---,0.00,VWS V13.01,2013-06-01 03:59:00,